Prochaines Courses

Reportages photos

Inscriptions en ligne

Connexion

6 Miles

 

6 Miles Pont de Briques du 15/02/15 (Reelle 8,9)
Rang Dossard Nom Prénom Temps Cat Rang Cat Ecart Ecart Cat Club Vitesse Km/h Temps au Km
1 825 GRESSIER JIMMY 00:29:46 JUM 1 00:00:00 00:00:00 MARQUISE 17,940 03:21
2 688 PRUVOT YOHANN 00:29:47 SEM 1 00:00:01 00:00:00 A.S. MARCK 17,929 03:21
3 766 LEPRETRE BENJAMIN 00:31:16 CAM 1 00:01:30 00:00:00 TOUQUET OPALE ATHLETISME 17,079 03:31
4 427 HENEMAN BENOIT 00:31:44 JUM 2 00:01:58 00:01:58 Gravelines Triathlon 16,828 03:34
5 598 DELEBECQUE OLIVIER 00:32:03 V1M 1 00:02:17 00:00:00 AMICALE DU VAL DE SOMME 16,661 03:36
6 689 MEATS ANTOINE 00:32:06 SEM 2 00:02:20 00:02:19 NON LICENCIE 16,636 03:36
7 114 LECARDONNEL AXEL 00:32:15 JUM 3 00:02:29 00:02:29 CLUB ATHLE. COUDEKERQUE-B 16,558 03:37
8 61 HENQUEZ THIERRY 00:32:20 V1M 2 00:02:34 00:00:17 AC AUDOMAROIS 16,515 03:38
9 18 THIBAULT NICOLAS 00:32:31 SEM 3 00:02:45 00:02:44 TOUQUET OPALE ATHLETISME 16,422 03:39
10 404 BRUNET MICKAEL 00:32:49 SEM 4 00:03:03 00:03:02 BLANC NEZ TRIATHLON 16,272 03:41
11 1 GUILBERT HERVE 00:32:55 V2M 1 00:03:09 00:00:00 R.C ARRAS 16,223 03:42
12 501 BOURDON GILBERT 00:33:08 SEM 5 00:03:22 00:03:21 ATHLETISME CLUB OUTREAU 16,117 03:43
13 303 KUSCHNICK PHILIPPE 00:33:15 V1M 3 00:03:29 00:01:12 CAP OPALE 16,060 03:44
14 131 MATRINGHEN TONY 00:33:20 SEM 6 00:03:34 00:03:33 TRIATHLON CLUB BOULONNAIS 16,020 03:45
15 700 LEFEBVRE ALEXIS 00:33:30 SEM 7 00:03:44 00:03:43 AC - VILLENEUVE D'ASCQ 15,940 03:46
16 380 ROELS PASCAL 00:33:35 V1M 4 00:03:49 00:01:32 A.S. MARCK 15,901 03:46
17 481 BOUTILLIER GUILLAUME 00:33:46 SEM 8 00:04:00 00:03:59 LE DRAPEAU 15,814 03:48
18 859 FORTIN LEO 00:33:52 SEM 9 00:04:06 00:04:05 CAP OPALE 15,768 03:48
19 444 DUBOIS DAVID 00:34:10 V1M 5 00:04:24 00:02:07 ARC INTERNATIONAL 15,629 03:50
20 8 PRUVOST ROMAIN 00:34:13 SEM 10 00:04:27 00:04:26 TOUQUET OPALE ATHLETISME 15,606 03:51
21 687 WACOGNE MICHAEL 00:34:15 SEM 11 00:04:29 00:04:28 TOUQUET OPALE ATHLETISME 15,591 03:51
22 496 BEAUMONT DENIS 00:34:16 V1M 6 00:04:30 00:02:13 ATHLETISME CLUB OUTREAU 15,584 03:51
23 826 GOURDIN ERIC 00:34:24 V1M 7 00:04:38 00:02:21 NON LICENCIE 15,523 03:52
24 376 COORNAERT SEBASTIEN 00:34:28 SEM 12 00:04:42 00:04:41 A.S. MARCK 15,493 03:52
25 758 GRESSIER OLIVIER 00:34:31 V1M 8 00:04:45 00:02:28 TEAM TRAIL 62 15,471 03:53
26 601 WILLER FRANCOIS 00:34:39 V1M 9 00:04:53 00:02:36 TOUQUET OPALE ATHLETISME 15,411 03:54
27 521 DESACHY DAVID 00:34:41 V1M 10 00:04:55 00:02:38 ATHLETISME CLUB OUTREAU 15,396 03:54
28 727 JOSEPH JOEL 00:34:47 V2M 2 00:05:01 00:01:52 AC - GOUSSAINVILLE 15,352 03:54
29 36 DUCROQ MARC ANTOINE 00:34:50 SEM 13 00:05:04 00:05:03 NON LICENCIE 15,330 03:55
30 2 LEBLOND STEPHANE 00:35:01 SEM 14 00:05:15 00:05:14 NON LICENCIE 15,250 03:56
31 519 DELVALLEE ALEXANDRE 00:35:02 SEM 15 00:05:16 00:05:15 ATHLETISME CLUB OUTREAU 15,243 03:56
32 102 DE GRAEVE PATRICK 00:35:06 V1M 11 00:05:20 00:03:03 NON LICENCIE 15,214 03:57
33 304 VANDEWALLE THOMAS 00:35:10 SEM 16 00:05:24 00:05:23 NON LICENCIE 15,185 03:57
34 733 MARGOLLE THOMAS 00:35:14 JUM 4 00:05:28 00:05:28 TOUQUET OPALE ATHLETISME 15,156 03:58
35 32 PRUVOST ALEXANDRE 00:35:21 SEM 17 00:05:35 00:05:34 O.S. AIRE 15,106 03:58
36 788 LEPRINCE SEBASTIEN 00:35:28 SEM 18 00:05:42 00:05:41 ATHLETISME TETEGHEM 15,056 03:59
37 68 LOUVRIE DIDIER 00:35:30 V3M 1 00:05:44 00:00:00 TOUQUET OPALE ATHLETISME 15,042 03:59
38 89 LEVEL FABIEN 00:35:32 SEM 19 00:05:46 00:05:45 ATHLETIQUE CLUB CAPELLOIS 15,028 04:00
39 21 VAMBRE LAURENT 00:35:34 V1M 12 00:05:48 00:03:31 TOUQUET OPALE ATHLETISME 15,014 04:00
40 572 VERBRIGGHE NORBERT 00:35:44 SEM 20 00:05:58 00:05:57 FOULEES LOONOISES 14,944 04:01
41 208 DANGLETERRE DIMITRI 00:35:45 SEM 21 00:05:59 00:05:58 TOUQUET OPALE ATHLETISME 14,937 04:01
42 218 BRISBAERT MATHIEU 00:35:45 SEM 22 00:05:59 00:05:58 COURIR A GRAVELINES 14,937 04:01
43 278 MASCOT GREGORY 00:35:47 V1M 13 00:06:01 00:03:44 NON LICENCIE 14,923 04:01
44 637 LACROIX OLIVIER 00:35:48 SEM 23 00:06:02 00:06:01 AMICALE HOSPITALIERS BOULOGNE 14,916 04:01
45 500 BOULY JEROME 00:35:48 V1M 14 00:06:02 00:03:45 ATHLETISME CLUB OUTREAU 14,916 04:01
46 761 APHERVE AURELIEN 00:35:51 CAM 2 00:06:05 00:04:35 LE DRAPEAU 14,895 04:02
47 424 REMBUR JULIEN 00:35:52 SEM 24 00:06:06 00:06:05 NON LICENCIE 14,888 04:02
48 574 LEPRETRE CYRILLE 00:35:59 SEM 25 00:06:13 00:06:12 LE DRAPEAU 14,840 04:03
49 474 CORBILLON JACKY 00:36:05 V1M 15 00:06:19 00:04:02 AMICALE DU VAL DE SOMME 14,799 04:03
50 832 DUMONT FLORENT 00:36:06 SEM 26 00:06:20 00:06:19 LYS CALAIS TRIATHLON 14,792 04:03
51 495 SUEUR SAMUEL 00:36:10 SEM 27 00:06:24 00:06:23 NON LICENCIE 14,765 04:04
52 696 HAIGNERE WILLIAM 00:36:11 SEM 28 00:06:25 00:06:24 NON LICENCIE 14,758 04:04
53 55 DUREZ ALWIN 00:36:13 CAM 3 00:06:27 00:04:57 Gravelines Triathlon 14,745 04:04
54 694 BEGUE XAVIER 00:36:15 V1M 16 00:06:29 00:04:12 NON LICENCIE 14,731 04:04
55 657 FOURNIER JEROME 00:36:15 SEM 29 00:06:29 00:06:28 PATRIOTES DE GUINES 14,731 04:04
56 393 ETIENNE FRANCOIS 00:36:17 JUM 5 00:06:31 00:06:31 NON LICENCIE 14,718 04:05
57 391 DOCQUOIS FREDERIC 00:36:19 V1M 17 00:06:33 00:04:16 LE DRAPEAU 14,704 04:05
58 549 PRZYBYLSKI GUILLAUME 00:36:21 SEM 30 00:06:35 00:06:34 TRIATHLON CLUB BOULONNAIS 14,691 04:05
59 550 QUANDALLE VINCENT 00:36:24 JUM 6 00:06:38 00:06:38 ATHLETISME CLUB OUTREAU 14,670 04:05
60 538 LETITRE BRUNO 00:36:29 SEM 31 00:06:43 00:06:42 ATHLETISME CLUB OUTREAU 14,637 04:06
61 143 RAY SAMUEL 00:36:29 V1M 18 00:06:43 00:04:26 NON LICENCIE 14,637 04:06
62 213 DUCROCQ LINDA 00:36:32 SEF 1 00:06:46 00:00:00 NON LICENCIE 14,617 04:06
63 392 ACLOQUE CYRIL 00:36:33 SEM 32 00:06:47 00:06:46 NON LICENCIE 14,610 04:06
64 646 CARBONNIER MICHEL 00:36:33 V1M 19 00:06:47 00:04:30 PATRIOTES DE GUINES 14,610 04:06
65 757 LEBEC MICKAEL 00:36:34 SEM 33 00:06:48 00:06:47 TEAM TRAIL 62 14,603 04:07
66 405 VASSEUR MATHIEU 00:36:42 SEM 34 00:06:56 00:06:55 NON LICENCIE 14,550 04:07
67 483 SAILLY JULIEN 00:36:43 SEM 35 00:06:57 00:06:56 NON LICENCIE 14,544 04:08
68 402 PODVIN CLAUDINE 00:36:44 V1F 1 00:06:58 00:00:00 TOUQUET OPALE ATHLETISME 14,537 04:08
69 484 ALVAREZ LEON MANUEL 00:36:48 SEM 36 00:07:02 00:07:01 NON LICENCIE 14,511 04:08
70 713 LEHON LUDOVIC 00:36:49 SEM 37 00:07:03 00:07:02 NON LICENCIE 14,504 04:08
71 651 DENIS GWENDOLINE 00:36:51 SEF 2 00:07:05 00:00:19 PATRIOTES DE GUINES 14,491 04:08
72 382 MORTIER ARMAND 00:36:54 SEM 38 00:07:08 00:07:07 A.S. MARCK 14,472 04:09
73 17 TESSIER LAURENT 00:36:58 V1M 20 00:07:12 00:04:55 A.S. MARCK 14,445 04:09
74 631 DELANNOY BASTIEN 00:36:58 SEM 39 00:07:12 00:07:11 AMICALE HOSPITALIERS BOULOGNE 14,445 04:09
75 737 MILLE SEBASTIEN 00:37:06 SEM 40 00:07:20 00:07:19 TRIATHLON CLUB BOULONNAIS 14,394 04:10
76 760 GOZE PHILIPPE 00:37:06 V1M 21 00:07:20 00:05:03 NON LICENCIE 14,394 04:10
77 356 HOLLEBECQUE MARTIN 00:37:06 SEM 41 00:07:20 00:07:19 WIMEREUX RUNNING CLUB 14,394 04:10
78 535 LEGRAND OLIVIER 00:37:08 V1M 22 00:07:22 00:05:05 ATHLETISME CLUB OUTREAU 14,381 04:10
79 475 PECQUEUX LUCAS 00:37:11 JUM 7 00:07:25 00:07:25 NON LICENCIE 14,361 04:11
80 446 HERMET LUC 00:37:12 V1M 23 00:07:26 00:05:09 ARC INTERNATIONAL 14,355 04:11
81 546 PAQUES CHRISTOPHE 00:37:13 V1M 24 00:07:27 00:05:10 ATHLETISME CLUB OUTREAU 14,348 04:11
82 105 LEBLOND ARNAUD 00:37:17 V1M 25 00:07:31 00:05:14 LE DRAPEAU 14,323 04:11
83 198 MAZURIER ALAIN 00:37:18 V1M 26 00:07:32 00:05:15 PATRIOTES CROSS DE GUINES 14,316 04:11
84 672 PIERRU REYNALD 00:37:25 V1M 27 00:07:39 00:05:22 PATRIOTES CROSS DE GUINES 14,272 04:12
85 751 VANSTRAZEELE MATHIEU 00:37:27 SEM 42 00:07:41 00:07:40 NON LICENCIE 14,259 04:12
86 502 BOURGAIN SEBASTIEN 00:37:29 V1M 28 00:07:43 00:05:26 ATHLETISME CLUB OUTREAU 14,246 04:13
87 109 MACQUINGHEN JULIEN 00:37:34 SEM 43 00:07:48 00:07:47 NON LICENCIE 14,215 04:13
88 138 GUILBERT FABIEN 00:37:35 SEM 44 00:07:49 00:07:48 NON LICENCIE 14,208 04:13
89 605 HOYER JOHNNY 00:37:36 SEM 45 00:07:50 00:07:49 LE DRAPEAU 14,202 04:13
90 140 MAHIEU LUDOVIC 00:37:36 SEM 46 00:07:50 00:07:49 AC AUDOMAROIS 14,202 04:13
91 506 CARON OLIVIER 00:37:37 SEM 47 00:07:51 00:07:50 ATHLETISME CLUB OUTREAU 14,196 04:14
92 277 BELLENGUEZ JULIEN 00:37:39 SEM 48 00:07:53 00:07:52 TRIATHLON CLUB BOULONNAIS 14,183 04:14
93 505 BRILLARD SEBASTIEN 00:37:42 SEM 49 00:07:56 00:07:55 ATHLETISME CLUB OUTREAU 14,164 04:14
94 544 MINARD MATTHIEU 00:37:43 SEM 50 00:07:57 00:07:56 ATHLETISME CLUB OUTREAU 14,158 04:14
95 670 MAEREL LOIC 00:37:44 SEM 51 00:07:58 00:07:57 PATRIOTES CROSS DE GUINES 14,152 04:14
96 669 LIMOUSIN STEPHANE 00:37:45 V1M 29 00:07:59 00:05:42 PATRIOTES CROSS DE GUINES 14,146 04:14
97 553 ROBERT EMMANUEL 00:37:49 V1M 30 00:08:03 00:05:46 ATHLETISME CLUB OUTREAU 14,121 04:15
98 384 KRISSAANE HEDI 00:37:49 V1M 31 00:08:03 00:05:46 A.S. MARCK 14,121 04:15
99 701 TIMMERMAN JULIEN 00:37:51 SEM 52 00:08:05 00:08:04 LYS CALAIS TRIATHLON 14,108 04:15
100 142 MOUSSAY MATTHIEU 00:37:53 SEM 53 00:08:07 00:08:06 Gravelines Triathlon 14,096 04:15
101 508 COPPIN NICOLAS 00:37:53 V1M 32 00:08:07 00:05:50 ATHLETISME CLUB OUTREAU 14,096 04:15
102 4 BADON EMMANUEL 00:37:54 SEM 54 00:08:08 00:08:07 NON LICENCIE 14,090 04:16
103 491 FRERE GUILLAUME 00:37:54 SEM 55 00:08:08 00:08:07 NON LICENCIE 14,090 04:16
104 692 HAUTECOEUR ALBIN 00:37:55 SEM 56 00:08:09 00:08:08 AS - RAISMES 14,084 04:16
105 752 ROUSSELLE BAPTISTE 00:37:56 SEM 57 00:08:10 00:08:09 NON LICENCIE 14,077 04:16
106 767 TANQUERAY PASCAL 00:37:57 SEM 58 00:08:11 00:08:10 NEUBOURG AC 14,071 04:16
107 652 DUCROCQ ARNAUD 00:37:57 V1M 33 00:08:11 00:05:54 PATRIOTES CROSS DE GUINES 14,071 04:16
108 244 STERCKEMAN BRUNO 00:37:59 V1M 34 00:08:13 00:05:56 COURIR A GRAVELINES 14,059 04:16
109 309 ROBART EDDY 00:37:59 V1M 35 00:08:13 00:05:56 CS NESLES 14,059 04:16
110 718 RINGOT STEPHANIE 00:38:00 V1F 2 00:08:14 00:01:16 ATHLETISME CLUB OUTREAU 14,053 04:16
111 152 PERARD VALENTIN 00:38:01 CAM 4 00:08:15 00:06:45 TEAM TRAIL 62 14,046 04:16
112 685 LANNOY ERIC 00:38:02 V1M 36 00:08:16 00:05:59 NON LICENCIE 14,040 04:16
113 518 DELATTRE JOHANN 00:38:04 SEM 59 00:08:18 00:08:17 ATHLETISME CLUB OUTREAU 14,028 04:17
114 561 MARCOURT GEOFFRAY 00:38:04 SEM 60 00:08:18 00:08:17 NON LICENCIE 14,028 04:17
115 324 SART THIERRY 00:38:09 V2M 3 00:08:23 00:05:14 ATHLETISME CLUB OUTREAU 13,997 04:17
116 632 FORESTIER ALAIN 00:38:15 V1M 37 00:08:29 00:06:12 AMICALE HOSPITALIERS BOULOGNE 13,961 04:18
117 803 LANDRECIES LOIC 00:38:16 SEM 61 00:08:30 00:08:29 NON LICENCIE 13,955 04:18
118 14 TAVERNE DAMIEN 00:38:18 SEM 62 00:08:32 00:08:31 TOUQUET OPALE ATHLETISME 13,943 04:18
119 322 BATTESTI DAVID 00:38:19 SEM 63 00:08:33 00:08:32 NON LICENCIE 13,936 04:18
120 12 LEMAITRE LAURENT 00:38:19 V1M 38 00:08:33 00:06:16 NON LICENCIE 13,936 04:18
121 707 BAHEU ROMAIN 00:38:19 SEM 64 00:08:33 00:08:32 ATHLETISME CLUB OUTREAU 13,936 04:18
122 467 KUPCZYK MARIAN 00:38:20 SEM 65 00:08:34 00:08:33 NON LICENCIE 13,930 04:18
123 263 WIMILLE OLIVIER 00:38:22 V1M 39 00:08:36 00:06:19 OPALE TRAIL NATURE 13,918 04:19
124 706 DELESCLUSE CLEMENT 00:38:23 SEM 66 00:08:37 00:08:36 TEAM TRIATHLON BAIE DE SOMME 13,912 04:19
125 379 SCHUPPE CLOTAIRE 00:38:24 V2M 4 00:08:38 00:05:29 A.S. MARCK 13,906 04:19
126 840 DELBE THIERRY 00:38:24 V2M 5 00:08:38 00:05:29 E.S. ARQUES 13,906 04:19
127 577 RIFFARD THOMAS 00:38:26 SEM 67 00:08:40 00:08:39 NON LICENCIE 13,894 04:19
128 359 DUMONT LUDOVIC 00:38:29 V1M 40 00:08:43 00:06:26 WIMEREUX RUNNING CLUB 13,876 04:19
129 770 VANHESSCHE HILDE 00:38:33 V1F 3 00:08:47 00:01:49 KAAG - Belgique 13,852 04:20
130 295 MARIQUE BERTRAND 00:38:36 V1M 41 00:08:50 00:06:33 COLEMBERT 13,834 04:20
131 823 BEAUMONT MAXIME 00:38:37 SEM 68 00:08:51 00:08:50 BOULOGNE CANOE KAYAK 13,828 04:20
132 454 STEEN FREDERIC 00:38:38 V1M 42 00:08:52 00:06:35 ARC INTERNATIONAL 13,822 04:20
133 522 DESACHY MARC 00:38:46 V1M 43 00:09:00 00:06:43 ATHLETISME CLUB OUTREAU 13,775 04:21
134 85 BRIEZ ARNAUD 00:38:46 V1M 44 00:09:00 00:06:43 ATHLETIQUE CLUB CAPELLOIS 13,775 04:21
135 428 DELANOY ALEXANDRE 00:38:48 SEM 69 00:09:02 00:09:01 NON LICENCIE 13,763 04:22
136 708 CALOIN WILLIAM 00:38:48 V1M 45 00:09:02 00:06:45 ATHLETISME CLUB OUTREAU 13,763 04:22
137 87 LEFEBVRE MAXENCE 00:38:50 CAM 5 00:09:04 00:07:34 ATHLETIQUE CLUB CAPELLOIS 13,751 04:22
138 824 CHARLET CHRISTOPHE 00:38:54 SEM 70 00:09:08 00:09:07 NON LICENCIE 13,728 04:22
139 93 NOEL DAVID 00:38:55 V1M 46 00:09:09 00:06:52 ATHLETIQUE CLUB CAPELLOIS 13,722 04:22
140 60 LANDRY ARNAUD 00:38:58 V1M 47 00:09:12 00:06:55 E.S. ARQUES 13,704 04:23
141 526 DUFOUR ANTOINE 00:38:59 SEM 71 00:09:13 00:09:12 ATHLETISME CLUB OUTREAU 13,698 04:23
142 555 SENECHAL SEBASTIEN 00:39:03 V1M 48 00:09:17 00:07:00 ATHLETISME CLUB OUTREAU 13,675 04:23
143 132 HARDY FABIEN 00:39:04 V1M 49 00:09:18 00:07:01 LES JOGGEURS DE GUEMPS 13,669 04:23
144 695 ROSE DANIEL 00:39:06 V2M 6 00:09:20 00:06:11 COURIR DANS LE LUMBROIS 13,657 04:24
145 252 BRUMENT MARION 00:39:11 SEF 3 00:09:25 00:02:39 TOUQUET OPALE ATHLETISME 13,628 04:24
146 269 DUCROCQ YVES 00:39:12 V2M 7 00:09:26 00:06:17 NON LICENCIE 13,622 04:24
147 785 PEVROT ADRIEN 00:39:13 CAM 6 00:09:27 00:07:57 TOA 13,617 04:24
148 465 CAPPELLE PATRICE 00:39:15 V1M 50 00:09:29 00:07:12 Gravelines Triathlon 13,605 04:25
149 195 VANHOORE SEBASTIEN 00:39:16 SEM 72 00:09:30 00:09:29 NON LICENCIE 13,599 04:25
150 611 TOROSSIAN FRANCOIS 00:39:18 SEM 73 00:09:32 00:09:31 NON LICENCIE 13,588 04:25
151 683 ESCUDERO XAVIER 00:39:18 V1M 51 00:09:32 00:07:15 HENIN ENDURANCE TEAM 13,588 04:25
152 113 BOUCHIQUET PASCAL 00:39:19 V1M 52 00:09:33 00:07:16 CLUB ATHLE. COUDEKERQUE-B 13,582 04:25
153 82 BARROIS CELINE 00:39:20 SEF 4 00:09:34 00:02:48 ATHLETIQUE CLUB CAPELLOIS 13,576 04:25
154 99 WIERRE LAURENT 00:39:21 SEM 74 00:09:35 00:09:34 ATHLETIQUE CLUB CAPELLOIS 13,571 04:25
155 315 QUENUT PIERRE 00:39:21 CAM 7 00:09:35 00:08:05 COTE D'OPALE TRIATHLON 13,571 04:25
156 39 MALBRANQUE JACKIE 00:39:22 V3M 2 00:09:36 00:03:52 JOGGING CLUB HARNESIEN 13,565 04:25
157 90 LEVEL LINA 00:39:22 SEF 5 00:09:36 00:02:50 ATHLETIQUE CLUB CAPELLOIS 13,565 04:25
158 529 GOURNAY DAVID 00:39:23 V1M 53 00:09:37 00:07:20 NON LICENCIE 13,559 04:26
159 768 LELEU LAETITIA 00:39:24 V1F 4 00:09:38 00:02:40 LE DRAPEAU 13,553 04:26
160 314 QUENUT LAURENT 00:39:24 V1M 54 00:09:38 00:07:21 O.S. AIRE 13,553 04:26
161 855 PRUVOST PASCAL 00:39:24 V1M 55 00:09:38 00:07:21 O.S. AIRE 13,553 04:26
162 351 BOURDON CYRILLE 00:39:24 SEM 75 00:09:38 00:09:37 TEAM TRAIL 62 13,553 04:26
163 856 MAYE BRUNO 00:39:25 V2M 8 00:09:39 00:06:30 O.S. AIRE 13,548 04:26
164 172 VERITE CEDRIC 00:39:26 SEM 76 00:09:40 00:09:39 SPORT PLUS 13,542 04:26
165 316 PILLEREL CHRISTOPHE 00:39:26 SEM 77 00:09:40 00:09:39 ATSCAF DUNKERQUE 13,542 04:26
166 216 BOUVIER YOAN 00:39:28 SEM 78 00:09:42 00:09:41 COURIR A GRAVELINES 13,530 04:26
167 836 DUVIEUXBOURG NICOLAS 00:39:31 SEM 79 00:09:45 00:09:44 PATRIOTES CROSS DE GUINES 13,513 04:26
168 377 GIROUD FRANCK 00:39:32 V1M 56 00:09:46 00:07:29 A.S. MARCK 13,508 04:27
169 667 LEGROS RAPHAEL 00:39:36 CAM 8 00:09:50 00:08:20 PATRIOTES DE GUINES 13,485 04:27
170 266 QUIQUET CHRISTOPHE 00:39:38 V2M 9 00:09:52 00:06:43 TCB 13,474 04:27
171 179 KRONUS JOEL 00:39:39 V2M 10 00:09:53 00:06:44 SAINT MARTIN ATHLETISME 13,468 04:27
172 548 POULAIN ADRIEN 00:39:42 V1M 57 00:09:56 00:07:39 ATHLETISME CLUB OUTREAU 13,451 04:28
173 858 LECARPENTIER FABRICE 00:39:43 V1M 58 00:09:57 00:07:40 NON LICENCIE 13,445 04:28
174 330 FOUCAULT SYLVAIN 00:39:44 SEM 80 00:09:58 00:09:57 CULTURE DANSE ETAPLES 13,440 04:28
175 42 CARDON FLORIAN 00:39:44 SEM 81 00:09:58 00:09:57 LE DRAPEAU 13,440 04:28
176 151 DAMIENS PHILIPPE 00:39:45 V1M 59 00:09:59 00:07:42 LE DRAPEAU 13,434 04:28
177 543 MERLIN LOIC 00:39:45 SEM 82 00:09:59 00:09:58 ATHLETISME CLUB OUTREAU 13,434 04:28
178 248 VANDERSTRAETEN KARINE 00:39:45 V1F 5 00:09:59 00:03:01 COURIR A GRAVELINES 13,434 04:28
179 674 QUENNEHEN HERVE 00:39:46 V1M 60 00:10:00 00:07:43 PATRIOTES CROSS DE GUINES 13,428 04:28
180 838 ROCHOY ANTOINE 00:39:48 JUM 8 00:10:02 00:10:02 NON LICENCIE 13,417 04:28
181 845 HAGNERE SEBASTIEN 00:39:51 SEM 83 00:10:05 00:10:04 SPORT PLUS 13,400 04:29
182 19 MIRMONT REMI 00:39:52 SEM 84 00:10:06 00:10:05 LE DRAPEAU 13,395 04:29
183 622 DEGARDIN LAURENT 00:39:53 V1M 61 00:10:07 00:07:50 TOUQUET OPALE ATHLETISME 13,389 04:29
184 281 BALY SYLVAIN 00:39:53 SEM 85 00:10:07 00:10:06 NON LICENCIE 13,389 04:29
185 111 FLAHAUT DANIEL 00:39:54 V1M 62 00:10:08 00:07:51 LE DRAPEAU 13,383 04:29
186 54 DESSENNE BENJAMIN 00:39:55 SEM 86 00:10:09 00:10:08 NON LICENCIE 13,378 04:29
187 204 PAVY FREDERIC 00:39:56 V1M 63 00:10:10 00:07:53 NON LICENCIE 13,372 04:29
188 510 CRETON JULIEN 00:39:57 SEM 87 00:10:11 00:10:10 NON LICENCIE 13,367 04:29
189 682 FERT GUILLAUME 00:39:57 SEM 88 00:10:11 00:10:10 CHARLEVILLE MEZIERES ATHLETISME 13,367 04:29
190 318 LASSALLE BENOIT 00:39:59 SEM 89 00:10:13 00:10:12 NON LICENCIE 13,356 04:30
191 668 LEMAITRE NICOLAS 00:40:03 V1M 64 00:10:17 00:08:00 PATRIOTES CROSS DE GUINES 13,333 04:30
192 675 ROUTIER MAUD 00:40:07 SEF 6 00:10:21 00:03:35 PATRIOTES CROSS DE GUINES 13,311 04:30
193 164 TISSERAND THIBAUT 00:40:14 SEM 90 00:10:28 00:10:27 NON LICENCIE 13,273 04:31
194 31 FORYCKI LUDOVIC 00:40:16 SEM 91 00:10:30 00:10:29 NON LICENCIE 13,262 04:31
195 479 GRESSIER OLIVIER 00:40:19 V1M 65 00:10:33 00:08:16 FREVENT OLYMPIC CLUB 13,245 04:32
196 745 LEVIEL THIBAULT 00:40:20 CAM 9 00:10:34 00:09:04 ELAN FRUGEOIS 13,240 04:32
197 659 HIVART RAPHAEL 00:40:21 SEM 92 00:10:35 00:10:34 PATRIOTES CROSS DE GUINES 13,234 04:32
198 722 ROGERE MARC 00:40:23 SEM 93 00:10:37 00:10:36 ATHLETISME CLUB OUTREAU 13,223 04:32
199 237 COMBET PHILIPPE 00:40:26 V2M 11 00:10:40 00:07:31 COURIR A GRAVELINES 13,207 04:33
200 67 TILLOY RAPHAEL 00:40:28 V1M 66 00:10:42 00:08:25 COTE D'OPALE TRIATHLON CALAIS ENDURANCE 13,196 04:33
201 378 SENET EMILIE 00:40:30 SEF 7 00:10:44 00:03:58 A.S. MARCK 13,185 04:33
202 385 CRESSON PASCAL 00:40:30 V2M 12 00:10:44 00:07:35 A.S. MARCK 13,185 04:33
203 866 NEVEU RUDY 00:40:30 SEM 94 00:10:44 00:10:43 ATHLETISME CLUB OUTREAU 13,185 04:33
204 721 ROGERE STEPHANE 00:40:31 V2M 13 00:10:45 00:07:36 ATHLETISME CLUB OUTREAU 13,180 04:33
205 531 LANGAGNE GAETAN 00:40:31 SEM 95 00:10:45 00:10:44 ATHLETISME CLUB OUTREAU 13,180 04:33
206 188 HALUZA MARK 00:40:31 SEM 96 00:10:45 00:10:44 NON LICENCIE 13,180 04:33
207 335 DIEVAL JACQUES 00:40:34 V1M 67 00:10:48 00:08:31 NON LICENCIE 13,164 04:33
208 255 BOUVOT CYRILLE 00:40:34 SEM 97 00:10:48 00:10:47 NON LICENCIE 13,164 04:33
209 769 LEGALLAIS GUILLAUME 00:40:35 JUM 9 00:10:49 00:10:49 NON LICENCIE 13,158 04:34
210 704 DAGNEAUX JULIEN 00:40:36 SEM 98 00:10:50 00:10:49 NON LICENCIE 13,153 04:34
211 327 LAURENT JOCELYN 00:40:36 V2M 14 00:10:50 00:07:41 CULTURE DANSE ETAPLES 13,153 04:34
212 552 ROBERT DAVID 00:40:43 V1M 68 00:10:57 00:08:40 ATHLETISME CLUB OUTREAU 13,115 04:34
213 743 SELLIER CHRISTOPHE 00:40:44 V1M 69 00:10:58 00:08:41 OPALE TRAIL NATURE 13,110 04:35
214 133 LESCOP GUILLAUME 00:40:45 SEM 99 00:10:59 00:10:58 JEUNESSE CAPPELLOISE 13,104 04:35
215 396 GIGADEN FRANCK 00:40:45 V1M 70 00:10:59 00:08:42 EXTREM TEAM 13,104 04:35
216 560 MAILLY STEPHANE 00:40:46 SEM 100 00:11:00 00:10:59 NON LICENCIE 13,099 04:35
217 86 FARNWORTH GRAEME 00:40:46 V1M 71 00:11:00 00:08:43 ATHLETIQUE CLUB CAPELLOIS 13,099 04:35
218 125 HALLENNE VALERY 00:40:48 V1M 72 00:11:02 00:08:45 TOUQUET OPALE ATHLETISME 13,088 04:35
219 247 VANDERSTRAETEN CHRISTOPHE 00:40:49 V1M 73 00:11:03 00:08:46 COURIR A GRAVELINES 13,083 04:35
220 98 SINNAEVE WILLY 00:40:49 V1M 74 00:11:03 00:08:46 ATHLETIQUE CLUB CAPELLOIS 13,083 04:35
221 445 DUBOIS STEPHANE 00:40:49 SEM 101 00:11:03 00:11:02 ARC INTERNATIONAL 13,083 04:35
222 602 BECQUET DAVID 00:40:52 V1M 75 00:11:06 00:08:49 NON LICENCIE 13,067 04:36
223 403 LIBERT DOMINIQUE 00:40:54 V1M 76 00:11:08 00:08:51 COURIR DANS LE LUMBROIS 13,056 04:36
224 73 VANDENABEELE VIRGINIE 00:40:55 V1F 6 00:11:09 00:04:11 A.S. MARCK 13,051 04:36
225 103 FAIT JEAN-PHILIPPE 00:40:55 V1M 77 00:11:09 00:08:52 TOUQUET TRAIL NATURE 13,051 04:36
226 49 BAHEUX JEAN MICHEL 00:40:56 V3M 3 00:11:10 00:05:26 NON LICENCIE 13,046 04:36
227 790 MISEROLE DAVID 00:40:59 SEM 102 00:11:13 00:11:12 ATHLETISME TETEGHEM 13,030 04:36
228 755 LENGAGNE KARL 00:41:00 V1M 78 00:11:14 00:08:57 NON LICENCIE 13,024 04:36
229 812 BEGUE YANNICK 00:41:03 V1M 79 00:11:17 00:09:00 NON LICENCIE 13,009 04:37
230 199 DOURLENS ANTOINE 00:41:03 SEM 103 00:11:17 00:11:16 NON LICENCIE 13,009 04:37
231 575 HACQUEL MICHEL 00:41:06 V1M 80 00:11:20 00:09:03 LE DRAPEAU 12,993 04:37
232 185 LEFRANC OLIVIER 00:41:08 V1M 81 00:11:22 00:09:05 SAINT MARTIN ATHLETISME 12,982 04:37
233 200 DELATTAIGNANT ARNAUD 00:41:11 V1M 82 00:11:25 00:09:08 NON LICENCIE 12,966 04:38
234 45 LANGLOIS FREDERIC 00:41:14 V1M 83 00:11:28 00:09:11 ATHLETIQUE CLUB CAPELLOIS 12,951 04:38
235 369 CABY RAPHAEL 00:41:16 V1M 84 00:11:30 00:09:13 WIMEREUX RUNNING CLUB 12,940 04:38
236 387 BRETON CHRISTOPHE 00:41:17 V1M 85 00:11:31 00:09:14 A.S. MARCK 12,935 04:38
237 724 FEUTRY CHRISTOPHE 00:41:17 V2M 15 00:11:31 00:08:22 A.S. MARCK 12,935 04:38
238 388 DETRES JEAN-BERNARD 00:41:17 V1M 86 00:11:31 00:09:14 A.S. MARCK 12,935 04:38
239 837 RIFFARD NICOLAS 00:41:17 SEM 104 00:11:31 00:11:30 NON LICENCIE 12,935 04:38
240 219 CLAIRET CHRISTOPHE 00:41:18 SEM 105 00:11:32 00:11:31 COURIR A GRAVELINES 12,930 04:38
241 238 LEFEBVRE LUCIEN 00:41:19 SEM 106 00:11:33 00:11:32 COURIR A GRAVELINES 12,925 04:39
242 26 PAINSET NICOLAS 00:41:21 V1M 87 00:11:35 00:09:18 NON LICENCIE 12,914 04:39
243 56 PLANCKE MATTHIAS 00:41:23 SEM 107 00:11:37 00:11:36 CH'TIS COUREURS DE BAVINCHOVE 12,904 04:39
244 357 TILLIER LUDOVIC 00:41:30 SEM 108 00:11:44 00:11:43 WIMEREUX RUNNING CLUB 12,867 04:40
245 373 MOLENBERGHS LAURENT 00:41:30 V1M 88 00:11:44 00:09:27 A.S. MARCK 12,867 04:40
246 478 DELAVIEZ JEAN-MARC 00:41:32 V2M 16 00:11:46 00:08:37 FREVENT OLYMPIC CLUB 12,857 04:40
247 642 BATILLIOT DOMINIQUE 00:41:36 V2F 1 00:11:50 00:00:00 PATRIOTES DE GUINES 12,837 04:40
248 684 DEWEER NICOLAS 00:41:36 SEM 109 00:11:50 00:11:49 NON LICENCIE 12,837 04:40
249 352 RYCKEWAERT XAVIER 00:41:36 SEM 110 00:11:50 00:11:49 WIMEREUX RUNNING CLUB 12,837 04:40
250 118 BRUNET ANTOINE 00:41:37 JUM 10 00:11:51 00:11:51 NON LICENCIE 12,831 04:41
251 580 CHAMPION BRUNO 00:41:37 V1M 89 00:11:51 00:09:34 NON LICENCIE 12,831 04:41
252 525 DOCQUOIS FLORIAN 00:41:41 JUM 11 00:11:55 00:11:55 ATHLETISME CLUB OUTREAU 12,811 04:41
253 193 BORDEZ FRANCK 00:41:42 V2M 17 00:11:56 00:08:47 SPORT PLUS 12,806 04:41
254 13 QUENUT FRANCK 00:41:44 V1M 90 00:11:58 00:09:41 NON LICENCIE 12,796 04:41
255 653 DUCROCQ PATRICK 00:41:44 V2M 18 00:11:58 00:08:49 PATRIOTES DE GUINES 12,796 04:41
256 207 BAY FREDERIC 00:41:45 SEM 111 00:11:59 00:11:58 NON LICENCIE 12,790 04:41
257 569 HADRI SEBASTIEN 00:41:48 SEM 112 00:12:02 00:12:01 FOULEES LOONOISES 12,775 04:42
258 741 GOBERT BRUNO 00:41:48 V1M 91 00:12:02 00:09:45 OPALE TRAIL NATURE 12,775 04:42
259 808 LELEU AMORY 00:41:48 SEM 113 00:12:02 00:12:01 NON LICENCIE 12,775 04:42
260 480 BOUTILLIER MARC 00:41:50 V3M 4 00:12:04 00:06:20 LE DRAPEAU 12,765 04:42
261 485 LEON CONCEPCION REBECA 00:41:51 V1F 7 00:12:05 00:05:07 NON LICENCIE 12,760 04:42
262 84 BEAUGRAND GREGORY 00:41:53 V1M 92 00:12:07 00:09:50 ATHLETIQUE CLUB CAPELLOIS 12,750 04:42
263 576 RIFFARD JEAN 00:41:54 V2M 19 00:12:08 00:08:59 OPALE TRAIL NATURE 12,745 04:42
264 64 LE SCIELLOUR BRUNO 00:41:55 V2M 20 00:12:09 00:09:00 LE DRAPEAU 12,740 04:43
265 613 KAHN JULIE 00:41:56 SEF 8 00:12:10 00:05:24 TOUQUET OPALE ATHLETISME 12,734 04:43
266 816 LEBURGUE GUILLAUME 00:41:57 SEM 114 00:12:11 00:12:10 ATHLETISME CLUB OUTREAU 12,729 04:43
267 254 BERDIN VALERIE 00:41:58 V1F 8 00:12:12 00:05:14 NON LICENCIE 12,724 04:43
268 759 DAGNEAUX FABIEN 00:41:59 V1M 93 00:12:13 00:09:56 MARQUISE ATHLETISME 12,719 04:43
269 732 DOUILLEZ VINCENT 00:42:01 V1M 94 00:12:15 00:09:58 NON LICENCIE 12,709 04:43
270 557 WATTEZ ERIC 00:42:04 V2M 21 00:12:18 00:09:09 ATHLETISME CLUB OUTREAU 12,694 04:44
271 362 DUBRULLE FRANCK 00:42:04 V2M 22 00:12:18 00:09:09 WIMEREUX RUNNING CLUB 12,694 04:44
272 410 JANDAU FABIEN 00:42:05 SEM 115 00:12:19 00:12:18 NON LICENCIE 12,689 04:44
273 250 WADOUX PIERRE 00:42:05 V1M 95 00:12:19 00:10:02 COURIR A GRAVELINES 12,689 04:44
274 321 MALLIOPOULOS XAVIER 00:42:06 V2M 23 00:12:20 00:09:11 BERCK A C O 12,684 04:44
275 852 ROLAND DAVID 00:42:07 SEM 116 00:12:21 00:12:20 NON LICENCIE 12,679 04:44
276 693 BOURGAIN GUILLAUME 00:42:08 SEM 117 00:12:22 00:12:21 NON LICENCIE 12,674 04:44
277 861 DARCOURT TONY 00:42:08 SEM 118 00:12:22 00:12:21 NON LICENCIE 12,674 04:44
278 203 KAMINSKI OLIVIA 00:42:08 SEF 9 00:12:22 00:05:36 TOUQUET OPALE ATHLETISME 12,674 04:44
279 799 PIERRU JULIEN 00:42:10 SEM 119 00:12:24 00:12:23 MARQUISE ATHLETISME 12,664 04:44
280 663 LEFEBVRE ARNAUD 00:42:11 SEM 120 00:12:25 00:12:24 PATRIOTES DE GUINES 12,659 04:44
281 3 APHERVE REGIS 00:42:12 V1M 96 00:12:26 00:10:09 LE DRAPEAU 12,654 04:44
282 70 NAJMI AICHA 00:42:14 V1F 9 00:12:28 00:05:30 LE DRAPEAU 12,644 04:45
283 520 DEMBREMENT STEPHANE 00:42:14 V1M 97 00:12:28 00:10:11 ATHLETISME CLUB OUTREAU 12,644 04:45
284 677 TARTART SYLVIE 00:42:17 V1F 10 00:12:31 00:05:33 PATRIOTES DE GUINES 12,629 04:45
285 363 CHEUVA LOIC 00:42:18 V1M 98 00:12:32 00:10:15 WIMEREUX RUNNING CLUB 12,624 04:45
286 513 DAUTREVAUX WILLIAM 00:42:19 JUM 12 00:12:33 00:12:33 ATHLETISME CLUB OUTREAU 12,619 04:45
287 242 PANTIERS JEAN CLAUDE 00:42:19 V3M 5 00:12:33 00:06:49 COURIR A GRAVELINES 12,619 04:45
288 473 BODART LUDOVIC 00:42:22 SEM 121 00:12:36 00:12:35 NON LICENCIE 12,604 04:46
289 120 CONDETTE ANDRE 00:42:26 V2M 24 00:12:40 00:09:31 NON LICENCIE 12,584 04:46
290 187 HARDOUIN JEAN-FRANCOIS 00:42:27 V1M 99 00:12:41 00:10:24 SAINT MARTIN ATHLETISME 12,580 04:46
291 206 DOCQUOIS MICHEL 00:42:28 V1M 100 00:12:42 00:10:25 LE DRAPEAU 12,575 04:46
292 312 THUILLIEZ VICTOR 00:42:29 CAM 10 00:12:43 00:11:13 NON LICENCIE 12,570 04:46
293 533 LAVERDURE PASCAL 00:42:30 V2M 25 00:12:44 00:09:35 ATHLETISME CLUB OUTREAU 12,565 04:47
294 673 PIERRU SIGRID 00:42:30 V1F 11 00:12:44 00:05:46 PATRIOTES CROSS DE GUINES 12,565 04:47
295 739 LEDOUX MAXIME 00:42:31 SEM 122 00:12:45 00:12:44 NON LICENCIE 12,560 04:47
296 470 LEBECQ LAURENT 00:42:32 V1M 101 00:12:46 00:10:29 NON LICENCIE 12,555 04:47
297 608 ROBERVAL GAUTIER 00:42:33 CAM 11 00:12:47 00:11:17 NON LICENCIE 12,550 04:47
298 416 CRETEL LAURENT 00:42:33 V1M 102 00:12:47 00:10:30 C.S. NESLES 12,550 04:47
299 124 JONCQUEL JEAN-PAUL 00:42:33 V2M 26 00:12:47 00:09:38 OPALE TRAIL NATURE 12,550 04:47
300 177 LEGAGNEUR MAURICE 00:42:33 V3M 6 00:12:47 00:07:03 SAINT MARTIN ATHLETISME 12,550 04:47
301 209 THIEULEUX SOPHIE 00:42:34 SEF 10 00:12:48 00:06:02 O.S. AIRE 12,545 04:47
302 183 BRICHE ERIC 00:42:37 V2M 27 00:12:51 00:09:42 SAINT MARTIN ATHLETISME 12,530 04:47
303 447 LEGRAND CHRISTOPHE 00:42:38 V1M 103 00:12:52 00:10:35 ARC INTERNATIONAL 12,525 04:47
304 705 BASSEZ GUILLAUME 00:42:40 SEM 123 00:12:54 00:12:53 TRITATHLON MONTREUILLOIS 12,516 04:48
305 450 RECOURT TEDDY 00:42:43 JUM 13 00:12:57 00:12:57 ARC INTERNATIONAL 12,501 04:48
306 205 MOREL ALEXANDRE 00:42:47 V1M 104 00:13:01 00:10:44 NON LICENCIE 12,481 04:48
307 41 DUREZ-NION ANGELIQUE 00:42:50 V1F 12 00:13:04 00:06:06 Gravelines Triathlon 12,467 04:49
308 614 POUILLY KEVIN 00:42:55 CAM 12 00:13:09 00:11:39 NON LICENCIE 12,443 04:49
309 621 HENNION GUILLAUME 00:42:58 SEM 124 00:13:12 00:13:11 COMPIEGNE TRIATHLON 12,428 04:50
310 53 HOLUIGUE FREDERIC 00:42:59 SEM 125 00:13:13 00:13:12 ATHLETIQUE CLUB CAPELLOIS 12,423 04:50
311 180 DEFOSSE ALEXANDRE 00:43:00 SEM 126 00:13:14 00:13:13 SAINT MARTIN ATHLETISME 12,419 04:50
312 342 DUCLOY KEVIN 00:43:01 SEM 127 00:13:15 00:13:14 SAINT MARTIN ATHLETISME 12,414 04:50
313 282 CUVELLIER PHILIPPE 00:43:03 V2M 28 00:13:17 00:10:08 COURIR A GRAVELINES 12,404 04:50
314 107 HUGOT CYRILLE 00:43:09 V1M 105 00:13:23 00:11:06 NON LICENCIE 12,375 04:51
315 690 POTTIER KARL 00:43:10 V1M 106 00:13:24 00:11:07 NON LICENCIE 12,371 04:51
316 115 COLIN FRANCOIS 00:43:11 SEM 128 00:13:25 00:13:24 NON LICENCIE 12,366 04:51
317 267 DUCROCQ VALENTIN 00:43:13 CAM 13 00:13:27 00:11:57 NON LICENCIE 12,356 04:51
318 116 MARIETTE YVETTE 00:43:13 V2F 2 00:13:27 00:01:37 LE DRAPEAU 12,356 04:51
319 184 SIABAS JEAN-MICHEL 00:43:14 V2M 29 00:13:28 00:10:19 SAINT MARTIN ATHLETISME 12,352 04:51
320 779 MAHY THIERRY 00:43:15 SEM 129 00:13:29 00:13:28 NON LICENCIE 12,347 04:52
321 711 GRASSELLI SABRINA 00:43:15 SEF 11 00:13:29 00:06:43 ATHLETISME CLUB OUTREAU 12,347 04:52
322 775 THUILLIER RENAUD 00:43:17 SEM 130 00:13:31 00:13:30 NON LICENCIE 12,337 04:52
323 455 VERRIELE BENOIT 00:43:18 V1M 107 00:13:32 00:11:15 ARC INTERNATIONAL 12,333 04:52
324 224 DECRIEM ERIC 00:43:19 V2M 30 00:13:33 00:10:24 COURIR A GRAVELINES 12,328 04:52
325 413 INGOUF NATHALIE 00:43:19 V1F 13 00:13:33 00:06:35 LE DRAPEAU 12,328 04:52
326 58 HANON JEAN-PIERRE 00:43:20 V2M 31 00:13:34 00:10:25 LE DRAPEAU 12,323 04:52
327 839 DUQUESNOY BENJAMIN 00:43:22 JUM 14 00:13:36 00:13:36 EMA 62 12,314 04:52
328 545 MINET CORENTINE 00:43:23 CAF 1 00:13:37 00:00:00 ATHLETISME CLUB OUTREAU 12,309 04:52
329 471 LAGACHE STEPHANE 00:43:23 V1M 108 00:13:37 00:11:20 NON LICENCIE 12,309 04:52
330 489 LABOURDETTE SEBASTIEN 00:43:23 V1M 109 00:13:37 00:11:20 NON LICENCIE 12,309 04:52
331 617 COMPIEGNE FRANCK 00:43:24 V2M 32 00:13:38 00:10:29 NON LICENCIE 12,304 04:53
332 658 GEENS MELANIE 00:43:27 V1F 14 00:13:41 00:06:43 PATRIOTES DE GUINES 12,290 04:53
333 299 VASSEUR MICKAEL 00:43:27 V1M 110 00:13:41 00:11:24 COLEMBERT 12,290 04:53
334 551 RENARD JULIEN 00:43:28 SEM 131 00:13:42 00:13:41 ATHLETISME CLUB OUTREAU 12,285 04:53
335 715 NAVET SEBASTIEN 00:43:28 V1M 111 00:13:42 00:11:25 ATHLETISME CLUB OUTREAU 12,285 04:53
336 814 VASSEUR DELPHINE 00:43:29 SEF 12 00:13:43 00:06:57 TRIATHLON CLUB DU MONTREUILLOIS 12,281 04:53
337 565 PIT BRUNO 00:43:33 V2M 33 00:13:47 00:10:38 FOULEES LOONOISES 12,262 04:54
338 547 PODEVIN JEAN-PIERRE 00:43:39 V2M 34 00:13:53 00:10:44 ATHLETISME CLUB OUTREAU 12,234 04:54
339 264 CARON MICKAEL 00:43:40 V1M 112 00:13:54 00:11:37 NON LICENCIE 12,229 04:54
340 88 LEBON RUDY 00:43:40 SEM 132 00:13:54 00:13:53 ATHLETIQUE CLUB CAPELLOIS 12,229 04:54
341 77 DAUDENTHUN ANTOINE 00:43:41 SEM 133 00:13:55 00:13:54 NON LICENCIE 12,224 04:54
342 406 MARQUANT JEAN-MICHEL 00:43:43 V1M 113 00:13:57 00:11:40 NON LICENCIE 12,215 04:55
343 47 THOMAS LIDIVINE 00:43:44 SEF 13 00:13:58 00:07:12 Gravelines Triathlon 12,210 04:55
344 40 HENEMAN CHRISTOPHE 00:43:44 V1M 114 00:13:58 00:11:41 Gravelines Triathlon 12,210 04:55
345 678 TIRMARCHE ANTOINE 00:43:45 JUM 15 00:13:59 00:13:59 PATRIOTES DE GUINES 12,206 04:55
346 494 STEVENART MICHEL 00:43:45 V2M 35 00:13:59 00:10:50 COURIR DANS LE LUMBROIS 12,206 04:55
347 581 DESTREZ CHRISTOPHE 00:43:46 V1M 115 00:14:00 00:11:43 NON LICENCIE 12,201 04:55
348 197 DENEZ ANNE-SOPHIE 00:43:48 V1F 15 00:14:02 00:07:04 PATRIOTES CROSS DE GUINES 12,192 04:55
349 407 GIGADEN EDDY 00:43:48 V1M 116 00:14:02 00:11:45 NON LICENCIE 12,192 04:55
350 592 MOUSSAY LAURENT 00:43:49 V1M 117 00:14:03 00:11:46 NON LICENCIE 12,187 04:55
351 583 CANNIE FRANCK 00:43:51 V1M 118 00:14:05 00:11:48 NON LICENCIE 12,178 04:56
352 735 DECUPPER JEAN SEBASTIEN 00:43:52 V1M 119 00:14:06 00:11:49 COURIR DANS LE LUMBROIS 12,173 04:56
353 33 BEGUE THIERRY 00:43:58 V1M 120 00:14:12 00:11:55 JOGGING CLUB LICQUOIS 12,146 04:56
354 456 GREMONT SOPHIE 00:44:02 V1F 16 00:14:16 00:07:18 TOUQUET OPALE ATHLETISME 12,127 04:57
355 16 DEBOVE DAVID 00:44:02 V1M 121 00:14:16 00:11:59 CS NESLES 12,127 04:57
356 422 MARGOLLE CHRISTOPHE 00:44:03 V1M 122 00:14:17 00:12:00 NON LICENCIE 12,123 04:57
357 354 GARENAUX FRANCOIS 00:44:03 V1M 123 00:14:17 00:12:00 WIMEREUX RUNNING CLUB 12,123 04:57
358 285 LESOT DELPHINE 00:44:05 V1F 17 00:14:19 00:07:21 COLEMBERT 12,113 04:57
359 401 HERLIN CLEMENT 00:44:05 SEM 134 00:14:19 00:14:18 NON LICENCIE 12,113 04:57
360 158 BUTEL MARIE 00:44:07 SEF 14 00:14:21 00:07:35 SPORT PLUS 12,104 04:57
361 571 GAMBLIN VIRGINIE 00:44:08 SEF 15 00:14:22 00:07:36 FOULEES LOONOISES 12,100 04:58
362 629 BRIMEUX LUDOVIC 00:44:10 SEM 135 00:14:24 00:14:23 AMICALE HOSPITALIERS BOULOGNE 12,091 04:58
363 630 DEBOVE JONATHAN 00:44:10 SEM 136 00:14:24 00:14:23 AMICALE HOSPITALIERS BOULOGNE 12,091 04:58
364 586 TINTILLIER ERIC 00:44:10 V1M 124 00:14:24 00:12:07 NON LICENCIE 12,091 04:58
365 300 WALLET DOMINIQUE 00:44:13 V2M 36 00:14:27 00:11:18 COLEMBERT 12,077 04:58
366 288 DETHOOR DOMINIQUE 00:44:13 V2M 37 00:14:27 00:11:18 COLEMBERT 12,077 04:58
367 643 BECQUET KARINE 00:44:14 V1F 18 00:14:28 00:07:30 PATRIOTES CROSS DE GUINES 12,072 04:58
368 660 JOLY DAVID 00:44:15 V1M 125 00:14:29 00:12:12 PATRIOTES CROSS DE GUINES 12,068 04:58
369 645 BUY JACQUES 00:44:15 V2M 38 00:14:29 00:11:20 PATRIOTES CROSS DE GUINES 12,068 04:58
370 340 SEIGNEUR FREDERIC 00:44:15 SEM 137 00:14:29 00:14:28 NON LICENCIE 12,068 04:58
371 458 BLARET LAURENT 00:44:18 V1M 126 00:14:32 00:12:15 NON LICENCIE 12,054 04:59
372 431 DELATTRE BENOIT 00:44:18 SEM 138 00:14:32 00:14:31 NON LICENCIE 12,054 04:59
373 819 BRICHE STEPHANE 00:44:19 V1M 127 00:14:33 00:12:16 NON LICENCIE 12,050 04:59
374 344 PERARD FREDDY 00:44:20 V2M 39 00:14:34 00:11:25 SAINT MARTIN ATHLETISME 12,045 04:59
375 638 LOEUILLEUX BERTRAND 00:44:21 V2M 40 00:14:35 00:11:26 AMICALE HOSPITALIERS BOULOGNE 12,041 04:59
376 119 FOURGEREUX ANNE 00:44:23 SEF 16 00:14:37 00:07:51 NON LICENCIE 12,032 04:59
377 323 PODEVIN PATRICE 00:44:23 V1M 128 00:14:37 00:12:20 NON LICENCIE 12,032 04:59
378 469 CORBILLON ROMAIN 00:44:24 SEM 139 00:14:38 00:14:37 AMICALE DU VAL DE SOMME 12,027 04:59
379 332 CLAIDIERE SEBASTIEN 00:44:26 SEM 140 00:14:40 00:14:39 AS CAMIERS 12,018 05:00
380 514 DEBAY MARINE 00:44:26 SEF 17 00:14:40 00:07:54 ATHLETISME CLUB OUTREAU 12,018 05:00
381 364 SPILMONT HELENE 00:44:26 SEF 18 00:14:40 00:07:54 WIMEREUX RUNNING CLUB 12,018 05:00
382 97 SAUVAGE LAURENT 00:44:28 V1M 129 00:14:42 00:12:25 ATHLETIQUE CLUB CAPELLOIS 12,009 05:00
383 463 ROBA VALENTIN 00:44:28 CAM 14 00:14:42 00:13:12 NON LICENCIE 12,009 05:00
384 117 MERLIN OLIVIER 00:44:29 SEM 141 00:14:43 00:14:42 NON LICENCIE 12,004 05:00
385 135 LARDET OLIVIER 00:44:30 SEM 142 00:14:44 00:14:43 NON LICENCIE 12,000 05:00
386 9 ROBART GUILLAUME 00:44:30 SEM 143 00:14:44 00:14:43 CS NESLES 12,000 05:00
387 166 HIARD ANDRE 00:44:34 V2M 41 00:14:48 00:11:39 SPORT PLUS 11,982 05:00
388 75 HENQUEZ YVES 00:44:34 V4M 1 00:14:48 00:00:00 PATRIOTES DE GUINES 11,982 05:00
389 134 BOULANGER LILIANE 00:44:36 V1F 19 00:14:50 00:07:52 NON LICENCIE 11,973 05:01
390 738 BAHEUX JACKIE 00:44:36 V1M 130 00:14:50 00:12:33 NON LICENCIE 11,973 05:01
391 94 NORMANT REMI 00:44:42 SEM 144 00:14:56 00:14:55 ATHLETIQUE CLUB CAPELLOIS 11,946 05:01
392 562 DELATTRE GUILLAUME 00:44:44 SEM 145 00:14:58 00:14:57 NON LICENCIE 11,937 05:02
393 764 GADEBLED CHRISTOPHE 00:44:47 V2M 42 00:15:01 00:11:52 NON LICENCIE 11,924 05:02
394 610 PETOLAS VALENTIN 00:44:47 SEM 146 00:15:01 00:15:00 NON LICENCIE 11,924 05:02
395 69 FASQUEL GREGORY 00:44:47 SEM 147 00:15:01 00:15:00 NON LICENCIE 11,924 05:02
396 559 COLIN CHRISTOPHE 00:44:47 V1M 131 00:15:01 00:12:44 NON LICENCIE 11,924 05:02
397 754 LELEU JEAN-FRANCOIS 00:44:50 V2M 43 00:15:04 00:11:55 NON LICENCIE 11,911 05:02
398 297 ROUSSEL STEPHANE 00:44:51 V2M 44 00:15:05 00:11:56 COLEMBERT 11,906 05:02
399 275 DEVEYER REMI 00:44:53 SEM 148 00:15:07 00:15:06 NON LICENCIE 11,898 05:03
400 497 BERNARD ALEXANDRE 00:44:59 V1M 132 00:15:13 00:12:56 ATHLETISME CLUB OUTREAU 11,871 05:03
401 795 GOURDIN FREDERIQUE 00:45:00 V1F 20 00:15:14 00:08:16 NON LICENCIE 11,867 05:03
402 846 DULOT ERIC 00:45:01 V2M 45 00:15:15 00:12:06 SPORT PLUS 11,862 05:03
403 498 BERNARD MICHAEL 00:45:02 V1M 133 00:15:16 00:12:59 ATHLETISME CLUB OUTREAU 11,858 05:04
404 528 FEUTRY PATRICK 00:45:04 V1M 134 00:15:18 00:13:01 ATHLETISME CLUB OUTREAU 11,849 05:04
405 507 CAULIER FREDDY 00:45:04 V2M 46 00:15:18 00:12:09 ATHLETISME CLUB OUTREAU 11,849 05:04
406 434 DELVALLEE LOGAN 00:45:08 JUM 16 00:15:22 00:15:22 NON LICENCIE 11,832 05:04
407 599 BAILLY AURELIE 00:45:09 SEF 19 00:15:23 00:08:37 COURIR DANS LE LUMBROIS 11,827 05:04
408 771 BOGAERT FRANKA 00:45:11 V1F 21 00:15:25 00:08:27 KAAG - Belgique 11,819 05:05
409 341 BARRAS PHILIPPE 00:45:11 V3M 7 00:15:25 00:09:41 SAINT MARTIN ATHLETISME 11,819 05:05
410 50 HENEMAN JEAN-MICHEL 00:45:12 V2M 47 00:15:26 00:12:17 Gravelines Triathlon 11,814 05:05
411 229 DEMOOR ERIC 00:45:13 V2M 48 00:15:27 00:12:18 COURIR A GRAVELINES 11,810 05:05
412 797 MAQUINGHEN THOMAS 00:45:14 CAM 15 00:15:28 00:13:58 NON LICENCIE 11,805 05:05
413 149 LAMARRE SABRINA 00:45:16 SEF 20 00:15:30 00:08:44 LE DRAPEAU 11,797 05:05
414 490 MARTEL ERIC 00:45:16 V2M 49 00:15:30 00:12:21 TEAM TRAIL 62 11,797 05:05
415 194 LEMAN GERARD 00:45:16 V2M 50 00:15:30 00:12:21 COURIR EN BAIE DE SOMME 11,797 05:05
416 121 CONDETTE CLAUDE 00:45:17 V2M 51 00:15:31 00:12:22 NON LICENCIE 11,792 05:05
417 368 DELVOYE LUC 00:45:18 V2M 52 00:15:32 00:12:23 A.S. MARCK 11,788 05:05
418 192 COINON CHRISTOPHE 00:45:20 SEM 149 00:15:34 00:15:33 NON LICENCIE 11,779 05:06
419 725 JOLY GILBERT 00:45:23 V1M 135 00:15:37 00:13:20 COURIR DANS LE LUMBROIS 11,766 05:06
420 509 CRETON FABRICE 00:45:24 V1M 136 00:15:38 00:13:21 ATHLETISME CLUB OUTREAU 11,762 05:06
421 214 AGNERAY SANDRINE 00:45:29 V1F 22 00:15:43 00:08:45 COURIR A GRAVELINES 11,741 05:07
422 680 MAQUINGHEN FRANCOIS 00:45:31 V1M 137 00:15:45 00:13:28 NON LICENCIE 11,732 05:07
423 579 EVRARD JEREMIE 00:45:31 JUM 17 00:15:45 00:15:45 NON LICENCIE 11,732 05:07
424 126 PAQUES ERIC 00:45:31 V2M 53 00:15:45 00:12:36 LE DRAPEAU 11,732 05:07
425 603 CHOCHOIS PATRICK 00:45:33 V2M 54 00:15:47 00:12:38 NON LICENCIE 11,723 05:07
426 108 BAUDELET NICOLAS 00:45:34 SEM 150 00:15:48 00:15:47 NON LICENCIE 11,719 05:07
427 499 BOUHASSOUN MEHDI 00:45:36 V1M 138 00:15:50 00:13:33 ATHLETISME CLUB OUTREAU 11,711 05:07
428 313 LEROUGE DAVID 00:45:38 V1M 139 00:15:52 00:13:35 C.S. NESLES 11,702 05:08
429 811 PLAQUET ANTOINE 00:45:38 JUM 18 00:15:52 00:15:52 NON LICENCIE 11,702 05:08
430 784 BAHEUX ERIC 00:45:39 V1M 140 00:15:53 00:13:36 NON LICENCIE 11,698 05:08
431 308 MASZOTA DARIA 00:45:40 SEF 21 00:15:54 00:09:08 LE DRAPEAU 11,693 05:08
432 319 DESOOMER BENOIT 00:45:41 V1M 141 00:15:55 00:13:38 NON LICENCIE 11,689 05:08
433 864 GUYOT REMI 00:45:42 SEM 151 00:15:56 00:15:55 TRIATHLON CLUB BOULONNAIS 11,685 05:08
434 361 FONTAINE XAVIER 00:45:43 V2M 55 00:15:57 00:12:48 WIMEREUX RUNNING CLUB 11,681 05:08
435 176 MALFOY ROMAIN 00:45:45 SEM 152 00:15:59 00:15:58 SAINT MARTIN ATHLETISME 11,672 05:08
436 600 LEBLOND GUILLAUME 00:45:45 SEM 153 00:15:59 00:15:58 NON LICENCIE 11,672 05:08
437 774 RAMET GUILLAUME 00:45:45 CAM 16 00:15:59 00:14:29 NON LICENCIE 11,672 05:08
438 161 DECOTTE GERARD 00:45:51 V2M 56 00:16:05 00:12:56 SPORT PLUS 11,647 05:09
439 640 PETIT VALENTIN 00:45:52 JUM 19 00:16:06 00:16:06 AMICALE HOSPITALIERS BOULOGNE 11,642 05:09
440 437 BRIDOUX LAETITIA 00:45:53 V1F 23 00:16:07 00:09:09 ARC INTERNATIONAL 11,638 05:09
441 679 PETOLAS ENGUERRAND 00:45:55 SEM 154 00:16:09 00:16:08 NON LICENCIE 11,630 05:10
442 854 MILLE FRANCIS 00:45:58 V2M 57 00:16:12 00:13:03 NON LICENCIE 11,617 05:10
443 154 BAILLY JULIEN 00:45:58 SEM 155 00:16:12 00:16:11 SPORT PLUS 11,617 05:10
444 291 FATRAS FREDERIC 00:45:59 V1M 142 00:16:13 00:13:56 COLEMBERT 11,613 05:10
445 449 MASSEMIN JEAN MARIE 00:46:01 V2M 58 00:16:15 00:13:06 ARC INTERNATIONAL 11,604 05:10
446 835 QUANDALLE THOMAS 00:46:01 SEM 156 00:16:15 00:16:14 ELAN FRUGEOIS 11,604 05:10
447 289 DOSSCHE PATRICK 00:46:01 V2M 59 00:16:15 00:13:06 COLEMBERT 11,604 05:10
448 375 AGEZ DAVID 00:46:01 V1M 143 00:16:15 00:13:58 A.S. MARCK 11,604 05:10
449 78 BALY PATRICK 00:46:02 V2M 60 00:16:16 00:13:07 NON LICENCIE 11,600 05:10
450 654 ETCHEPARE JEAN-PHILIPPE 00:46:02 SEM 157 00:16:16 00:16:15 PATRIOTES DE GUINES 11,600 05:10
451 96 REGNIER CHRISTINE 00:46:02 V1F 24 00:16:16 00:09:18 ATHLETIQUE CLUB CAPELLOIS 11,600 05:10
452 860 MINET CLAUDE 00:46:03 V2M 61 00:16:17 00:13:08 CAP OPALE 11,596 05:10
453 417 GUILLEMANT VINCENT 00:46:04 SEM 158 00:16:18 00:16:17 NON LICENCIE 11,592 05:11
454 202 HODICQ FREDDY 00:46:09 V1M 144 00:16:23 00:14:06 TEAM TRAIL 62 11,571 05:11
455 460 BIALAIS FREDERIC 00:46:09 SEM 159 00:16:23 00:16:22 NON LICENCIE 11,571 05:11
456 130 MAUGUIERE JACQUES 00:46:10 V3M 8 00:16:24 00:10:40 NON LICENCIE 11,567 05:11
457 305 LENOT XAVIER 00:46:14 SEM 160 00:16:28 00:16:27 SPORT PLUS 11,550 05:12
458 155 BRIDOUX CHRISTINE 00:46:14 V1F 25 00:16:28 00:09:30 SPORT PLUS 11,550 05:12
459 588 LEFEBVRE CHRISTOPHE 00:46:15 V1M 145 00:16:29 00:14:12 NON LICENCIE 11,546 05:12
460 136 CANU MANUEL 00:46:15 SEM 161 00:16:29 00:16:28 NON LICENCIE 11,546 05:12
461 174 WALSCHAERT ARNAUD 00:46:16 V1M 146 00:16:30 00:14:13 SPORT PLUS 11,542 05:12
462 66 PRUVOST ETIENNE 00:46:16 SEM 162 00:16:30 00:16:29 LILLE METROPOLE ATHLETISM 11,542 05:12
463 222 CATTEAU HUBERT 00:46:19 V1M 147 00:16:33 00:14:16 NON LICENCIE 11,529 05:12
464 787 MOUILLARD MAXIME 00:46:19 JUM 20 00:16:33 00:16:33 NON LICENCIE 11,529 05:12
465 736 POTTIER CYRIL 00:46:20 CAM 17 00:16:34 00:15:04 NON LICENCIE 11,525 05:12
466 594 VAILLANT PATRICE 00:46:25 V2M 62 00:16:39 00:13:30 NON LICENCIE 11,504 05:13
467 249 WADOUX LAURETTE 00:46:28 V2F 3 00:16:42 00:04:52 COURIR A GRAVELINES 11,492 05:13
468 217 BRISBAERT JEAN LUC 00:46:29 V2M 63 00:16:43 00:13:34 COURIR A GRAVELINES 11,488 05:13
469 527 FERNAGUT SANDRINE 00:46:31 SEF 22 00:16:45 00:09:59 ATHLETISME CLUB OUTREAU 11,480 05:14
470 163 DULOT PASCALINE 00:46:33 V1F 26 00:16:47 00:09:49 SPORT PLUS 11,472 05:14
471 833 TISSERAND GAUTHIER 00:46:34 JUM 21 00:16:48 00:16:48 NON LICENCIE 11,467 05:14
472 167 FLOURET LAUGIER STEPHANIE 00:46:34 V1F 27 00:16:48 00:09:50 SPORT PLUS 11,467 05:14
473 168 METTIER JEAN-FRANCOIS 00:46:35 V1M 148 00:16:49 00:14:32 SPORT PLUS 11,463 05:14
474 482 SAILLY ALAIN 00:46:38 V2M 64 00:16:52 00:13:43 NON LICENCIE 11,451 05:14
475 734 LEVIS Francois 00:46:41 V2M 65 00:16:55 00:13:46 NON LICENCIE 11,439 05:15
476 666 LEGROS MANUEL 00:46:41 SEM 163 00:16:55 00:16:54 PATRIOTES CROSS DE GUINES 11,439 05:15
477 51 POIVRE LIONEL 00:46:42 V2M 66 00:16:56 00:13:47 TEAM LOUVE 11,435 05:15
478 587 BAILLET LAURA 00:46:42 SEF 23 00:16:56 00:10:10 NON LICENCIE 11,435 05:15
479 157 BUTEL DANIEL 00:46:43 V2M 67 00:16:57 00:13:48 SPORT PLUS 11,431 05:15
480 228 DEGRAVE PATRICK 00:46:43 V2M 68 00:16:57 00:13:48 COURIR A GRAVELINES 11,431 05:15
481 22 WILLAERT JULIEN 00:46:44 SEM 164 00:16:58 00:16:57 NON LICENCIE 11,427 05:15
482 612 TERNISIEN SEBASTIEN 00:46:44 SEM 165 00:16:58 00:16:57 NON LICENCIE 11,427 05:15
483 635 HENEBEL LUC 00:46:45 V1M 149 00:16:59 00:14:42 AMICALE HOSPITALIERS BOULOGNE 11,422 05:15
484 210 THIEULEUX PIERRE 00:46:47 SEM 166 00:17:01 00:17:00 O.S. AIRE 11,414 05:15
485 780 BIET SAMUEL 00:46:49 SEM 167 00:17:03 00:17:02 NON LICENCIE 11,406 05:16
486 186 KORBER CHRISTIAN 00:46:49 V3M 9 00:17:03 00:11:19 SAINT MARTIN ATHLETISME 11,406 05:16
487 457 BIGOT MARIE-CHRISTINE 00:46:50 V2F 4 00:17:04 00:05:14 NON LICENCIE 11,402 05:16
488 834 LAUDE MAGALI 00:46:53 SEF 24 00:17:07 00:10:21 ELAN FRUGEOIS 11,390 05:16
489 542 MAILLOT MELANIE 00:46:58 SEF 25 00:17:12 00:10:26 ATHLETISME CLUB OUTREAU 11,370 05:17
490 296 PLAYE FRANCOIS 00:47:00 V1M 150 00:17:14 00:14:57 COLEMBERT 11,362 05:17
491 306 BERNARD SYLVIE 00:47:01 V1F 28 00:17:15 00:10:17 LE DRAPEAU 11,358 05:17
492 582 SZWIERGOTT ETIENNE 00:47:01 V2M 69 00:17:15 00:14:06 NON LICENCIE 11,358 05:17
493 63 LENGLET BRUNO 00:47:07 V1M 151 00:17:21 00:15:04 NON LICENCIE 11,334 05:18
494 626 DESPRES DANY 00:47:16 SEM 168 00:17:30 00:17:29 NON LICENCIE 11,298 05:19
495 153 BAILLET CHRISTIAN 00:47:16 V2M 70 00:17:30 00:14:21 SPORT PLUS 11,298 05:19
496 141 MOUSSAY EMILIE 00:47:17 SEF 26 00:17:31 00:10:45 NON LICENCIE 11,294 05:19
497 301 AVISSE SEBASTIEN 00:47:17 SEM 169 00:17:31 00:17:30 COLEMBERT 11,294 05:19
498 794 COLLANGE SEBASTIEN 00:47:17 V1M 152 00:17:31 00:15:14 NON LICENCIE 11,294 05:19
499 649 DENEZ CHRISTELLE 00:47:19 V1F 29 00:17:33 00:10:35 PATRIOTES CROSS DE GUINES 11,286 05:19
500 279 LEDOUX JULIEN 00:47:21 SEM 170 00:17:35 00:17:34 NON LICENCIE 11,278 05:19
501 256 BAILLIEU ROSELINE 00:47:24 SEF 27 00:17:38 00:10:52 NON LICENCIE 11,266 05:20
502 293 LESOT FREDERIC 00:47:29 V1M 153 00:17:43 00:15:26 COLEMBERT 11,246 05:20
503 627 BERANGER JEAN-CHARLES 00:47:31 V2M 71 00:17:45 00:14:36 AMICALE HOSPITALIERS BOULOGNE 11,238 05:20
504 644 BRULIN MYLENE 00:47:33 SEF 28 00:17:47 00:11:01 PATRIOTES CROSS DE GUINES 11,230 05:21
505 171 CONDETTE JEAN-LUC 00:47:33 V3M 10 00:17:47 00:12:03 NON LICENCIE 11,230 05:21
506 241 MULLER FABRICE 00:47:34 V1M 154 00:17:48 00:15:31 COURIR A GRAVELINES 11,226 05:21
507 57 BEAUGRAND FABRICE 00:47:36 V1M 155 00:17:50 00:15:33 NON LICENCIE 11,218 05:21
508 211 SOUFFLET YOAN 00:47:38 SEM 171 00:17:52 00:17:51 NON LICENCIE 11,211 05:21
509 662 LEBRUN CAROLINE 00:47:40 SEF 29 00:17:54 00:11:08 PATRIOTES CROSS DE GUINES 11,203 05:21
510 822 SEU GIOVANNI 00:47:43 CAM 18 00:17:57 00:16:27 BCK 11,191 05:22
511 639 MASSET FREDERIC 00:47:44 V1M 156 00:17:58 00:15:41 AMICALE HOSPITALIERS BOULOGNE 11,187 05:22
512 503 BOURSAULT HELENE 00:47:46 V1F 30 00:18:00 00:11:02 ATHLETISME CLUB OUTREAU 11,179 05:22
513 311 CHARTAUX SUZEL 00:47:52 V1F 31 00:18:06 00:11:08 CS NESLES 11,156 05:23
514 310 CHARTAUX RAPHAEL 00:47:53 V1M 157 00:18:07 00:15:50 CS NESLES 11,152 05:23
515 76 DOURDET FABRICE 00:47:54 V2M 72 00:18:08 00:14:59 NON LICENCIE 11,148 05:23
516 625 DUBOIS DOMINIQUE 00:47:56 V1M 158 00:18:10 00:15:53 NON LICENCIE 11,140 05:23
517 862 CARLY VALERIE 00:47:59 V1F 32 00:18:13 00:11:15 NON LICENCIE 11,129 05:23
518 276 LEDOUX THIERRY 00:48:00 V1M 159 00:18:14 00:15:57 LE DRAPEAU 11,125 05:24
519 253 MAILLOT FLORENCE 00:48:00 SEF 30 00:18:14 00:11:28 COLEMBERT 11,125 05:24
520 236 LE GALL CHRISTINE 00:48:00 V2F 5 00:18:14 00:06:24 COURIR A GRAVELINES 11,125 05:24
521 765 LEPERCQ FLORENT 00:48:04 V2M 73 00:18:18 00:15:09 LE DRAPEAU 11,110 05:24
522 641 VASSEUR-FIEVET CHRISTELE 00:48:05 V1F 33 00:18:19 00:11:21 AMICALE HOSPITALIERS BOULOGNE 11,106 05:24
523 530 HANQUEZ DOROTHEE 00:48:06 SEF 31 00:18:20 00:11:34 ATHLETISME CLUB OUTREAU 11,102 05:24
524 462 LEJOSNE LUC 00:48:11 V2M 74 00:18:25 00:15:16 R TRIBE BEAURAINVILLE 11,083 05:25
525 578 FREZEL ROMAIN 00:48:11 CAM 19 00:18:25 00:16:55 NON LICENCIE 11,083 05:25
526 740 GIRAULT VALERIE 00:48:12 V1F 34 00:18:26 00:11:28 OPALE TRAIL NATURE 11,079 05:25
527 742 MACQUET BRUNO 00:48:12 V2M 75 00:18:26 00:15:17 OPALE TRAIL NATURE 11,079 05:25
528 863 GUYOT CHRISTOPHE 00:48:14 V1M 160 00:18:28 00:16:11 CALOTTERIE 11,071 05:25
529 676 SENECHAL MARIE-CHRISTINE 00:48:14 V2F 6 00:18:28 00:06:38 PATRIOTES DE GUINES 11,071 05:25
530 448 LEGRAND NATHALIE 00:48:15 V1F 35 00:18:29 00:11:31 ARC INTERNATIONAL 11,067 05:25
531 412 BOLLENGIER LAURENT 00:48:15 V1M 161 00:18:29 00:16:12 O.S. AIRE 11,067 05:25
532 665 LEGROS GERALDINE 00:48:15 V1F 36 00:18:29 00:11:31 PATRIOTES DE GUINES 11,067 05:25
533 591 HANQUEZ EMMANUEL 00:48:16 V1M 162 00:18:30 00:16:13 SPORT EVASION DES 2 CAPS 11,064 05:25
534 159 CHOCHOY THIERRY 00:48:24 V2M 76 00:18:38 00:15:29 SPORT PLUS 11,033 05:26
535 10 ROBART FRANCOIS 00:48:24 V2M 77 00:18:38 00:15:29 CS NESLES 11,033 05:26
536 329 FOUCAULT PASCAL 00:48:25 V2M 78 00:18:39 00:15:30 CULTURE DANSE ETAPLES 11,029 05:26
537 175 MALFOY JEAN-PIERRE 00:48:27 V3M 11 00:18:41 00:12:57 SAINT MARTIN ATHLETISME 11,022 05:27
538 540 LIBERT MARIE-FRANCE 00:48:29 V3F 1 00:18:43 00:00:00 ATHLETISME CLUB OUTREAU 11,014 05:27
539 328 RAY ISABELLE 00:48:29 V1F 37 00:18:43 00:11:45 CULTURE DANSE ETAPLES 11,014 05:27
540 539 LIBERT ERIC 00:48:31 V2M 79 00:18:45 00:15:36 ATHLETISME CLUB OUTREAU 11,007 05:27
541 729 LEQUEUTRE CHRISTOPHE 00:48:33 V1M 163 00:18:47 00:16:30 ATHLETISME CLUB OUTREAU 10,999 05:27
542 726 FLEURMAN BENEDICTE 00:48:35 SEF 32 00:18:49 00:12:03 NON LICENCIE 10,991 05:28
543 865 BAILLET ANTOINE 00:48:35 SEM 172 00:18:49 00:18:48 SPORT PLUS 10,991 05:28
544 243 SELINGUE THIERRY 00:48:37 V2M 80 00:18:51 00:15:42 COURIR A GRAVELINES 10,984 05:28
545 604 PODEVIN SERGE 00:48:43 V2M 81 00:18:57 00:15:48 NON LICENCIE 10,961 05:28
546 20 PIDOU HERVE 00:48:45 V2M 82 00:18:59 00:15:50 NON LICENCIE 10,954 05:29
547 596 BOCHU MICHEL 00:48:46 V3M 12 00:19:00 00:13:16 NON LICENCIE 10,950 05:29
548 686 BIALAIS SEBASTIEN 00:48:47 SEM 173 00:19:01 00:19:00 NON LICENCIE 10,946 05:29
549 753 FICHEUX LUCETTE 00:48:47 V2F 7 00:19:01 00:07:11 TOUQUET OPALE ATHLETISME 10,946 05:29
550 239 LHOMME DANIEL 00:48:49 V3M 13 00:19:03 00:13:19 COURIR A GRAVELINES 10,939 05:29
551 541 LOUCHET AURELIE 00:48:49 V1F 38 00:19:03 00:12:05 ATHLETISME CLUB OUTREAU 10,939 05:29
552 800 RIVENEZ JEROME 00:48:51 SEM 174 00:19:05 00:19:04 NON LICENCIE 10,931 05:29
553 59 HANON LILIANE 00:48:51 V2F 8 00:19:05 00:07:15 LE DRAPEAU 10,931 05:29
554 746 GUILBERT FREDERIC 00:48:57 V1M 164 00:19:11 00:16:54 ELAN FRUGEOIS 10,909 05:30
555 827 HOCQUETTE GASTON 00:48:59 SEM 175 00:19:13 00:19:12 NON LICENCIE 10,902 05:30
556 347 SAUVAGE JEAN-YVES 00:49:06 V1M 165 00:19:20 00:17:03 SAINT MARTIN ATHLETISME 10,876 05:31
557 156 BROCHART LUDOVIC 00:49:06 V1M 166 00:19:20 00:17:03 SPORT PLUS 10,876 05:31
558 633 FORESTIER DELPHINE 00:49:08 V1F 39 00:19:22 00:12:24 AMICALE HOSPITALIERS BOULOGNE 10,868 05:31
559 844 FAUQUEMBERGUE PHILIPPE 00:49:09 V1M 167 00:19:23 00:17:06 LE DRAPEAU 10,865 05:31
560 426 SAINT-GEORGES SYLVIE 00:49:10 V1F 40 00:19:24 00:12:26 SAINT MARTIN ATHLETISME 10,861 05:31
561 389 VAN DOREN MICHEL 00:49:12 V3M 14 00:19:26 00:13:42 TOUQUET OPALE ATHLETISME 10,854 05:32
562 698 EVRARD ROMAIN 00:49:14 SEM 176 00:19:28 00:19:27 NON LICENCIE 10,846 05:32
563 283 DUSSART MURIEL 00:49:15 V2F 9 00:19:29 00:07:39 COLEMBERT 10,843 05:32
564 647 CARBONNIER SEBASTIEN 00:49:16 V1M 168 00:19:30 00:17:13 PATRIOTES DE GUINES 10,839 05:32
565 590 DEHONDT THIERRY 00:49:16 V1M 169 00:19:30 00:17:13 NON LICENCIE 10,839 05:32
566 336 KACZMAREK JOSE 00:49:19 V2M 83 00:19:33 00:16:24 NON LICENCIE 10,828 05:32
567 720 ROGERE KATY 00:49:20 V1F 41 00:19:34 00:12:36 ATHLETISME CLUB OUTREAU 10,824 05:33
568 397 HEUX JACQUELINE 00:49:20 V1F 42 00:19:34 00:12:36 COLEMBERT 10,824 05:33
569 162 DENIS CORINNE 00:49:21 V1F 43 00:19:35 00:12:37 SPORT PLUS 10,821 05:33
570 215 BARRE BEATRICE 00:49:22 V2F 10 00:19:36 00:07:46 COURIR A GRAVELINES 10,817 05:33
571 137 LAURENT OLIVIER 00:49:30 SEM 177 00:19:44 00:19:43 NON LICENCIE 10,788 05:34
572 847 LEDEZ FABRICE 00:49:30 V1M 170 00:19:44 00:17:27 NON LICENCIE 10,788 05:34
573 274 CAILLIET MATTHIEU 00:49:31 SEM 178 00:19:45 00:19:44 NON LICENCIE 10,784 05:34
574 44 MAGNIER MATHIEU 00:49:33 SEM 179 00:19:47 00:19:46 NON LICENCIE 10,777 05:34
575 537 LERICHE PATRICIA 00:49:33 V2F 11 00:19:47 00:07:57 ATHLETISME CLUB OUTREAU 10,777 05:34
576 343 PIHL JOEL 00:49:34 V3M 15 00:19:48 00:14:04 SAINT MARTIN ATHLETISME 10,773 05:34
577 435 DEGROOTE MAGGY 00:49:39 SEF 33 00:19:53 00:13:07 NON LICENCIE 10,755 05:35
578 748 LUCAS MICHAEL 00:49:42 V1M 171 00:19:56 00:17:39 ELAN FRUGEOIS 10,744 05:35
579 628 BRIMEUX PIERRE 00:49:43 V3M 16 00:19:57 00:14:13 AMICALE HOSPITALIERS BOULOGNE 10,741 05:35
580 421 MERLIN JEAN CLAUDE 00:49:46 V2M 84 00:20:00 00:16:51 NON LICENCIE 10,730 05:36
581 459 MARLARD PASCALINE 00:49:51 V1F 44 00:20:05 00:13:07 NON LICENCIE 10,712 05:36
582 806 MORTIER ROMAIN 00:49:54 SEM 180 00:20:08 00:20:07 NON LICENCIE 10,701 05:36
583 298 SERGENT LAURENT 00:49:54 V2M 85 00:20:08 00:16:59 COLEMBERT 10,701 05:36
584 290 DUCROQUET MICHEL 00:49:54 V3M 17 00:20:08 00:14:24 COLEMBERT 10,701 05:36
585 287 SERGENT SOPHIE 00:49:55 V1F 45 00:20:09 00:13:11 COLEMBERT 10,698 05:37
586 477 DAUSQUE DAMIEN 00:50:00 SEM 181 00:20:14 00:20:13 NON LICENCIE 10,680 05:37
587 783 PRUVOT RENAUD 00:50:02 V1M 172 00:20:16 00:17:59 NON LICENCIE 10,673 05:37
588 240 LORIDAN CAROLINE 00:50:03 SEF 34 00:20:17 00:13:31 COURIR A GRAVELINES 10,669 05:37
589 235 LARTIGE FABRICE 00:50:04 V2M 86 00:20:18 00:17:09 COURIR A GRAVELINES 10,666 05:38
590 821 BODART STEVEN 00:50:05 CAM 20 00:20:19 00:18:49 BCK 10,662 05:38
591 762 COUSIN CHRISTOPHE 00:50:05 V1M 173 00:20:19 00:18:02 NON LICENCIE 10,662 05:38
592 400 THULLIEZ LAURE 00:50:05 SEF 35 00:20:19 00:13:33 NON LICENCIE 10,662 05:38
593 809 GODARD PASCAL 00:50:08 V1M 174 00:20:22 00:18:05 X'TREM TEAM 10,652 05:38
594 6 VANACKERE FREDERIC 00:50:13 V2M 87 00:20:27 00:17:18 ATHLETISME CLUB OUTREAU 10,634 05:39
595 302 CAULIER RUDOPLH 00:50:13 V1M 175 00:20:27 00:18:10 COLEMBERT 10,634 05:39
596 294 MAES ETIENNE 00:50:13 V2M 88 00:20:27 00:17:18 COLEMBERT 10,634 05:39
597 433 MERLIN JULIE 00:50:14 SEF 36 00:20:28 00:13:42 NON LICENCIE 10,630 05:39
598 386 LEBLANC LYDIE 00:50:17 V2F 12 00:20:31 00:08:41 A.S. MARCK 10,620 05:39
599 523 DEVIGNE JOCELYNE 00:50:19 V2F 13 00:20:33 00:08:43 ATHLETISME CLUB OUTREAU 10,613 05:39
600 52 HOLUIGUE VIRGINIE 00:50:20 SEF 37 00:20:34 00:13:48 ATHLETIQUE CLUB CAPELLOIS 10,609 05:39
601 23 LEBON AUDREY 00:50:21 SEF 38 00:20:35 00:13:49 ATHLETIQUE CLUB CAPELLOIS 10,606 05:39
602 270 FRANCOIS CELINE 00:50:26 V1F 46 00:20:40 00:13:42 NON LICENCIE 10,588 05:40
603 815 PREMEAU CHRISTINE 00:50:26 V2F 14 00:20:40 00:08:50 LE DRAPEAU 10,588 05:40
604 212 MERLIN AMELIE 00:50:27 SEF 39 00:20:41 00:13:55 NON LICENCIE 10,585 05:40
605 326 COLL NADIA 00:50:37 V1F 47 00:20:51 00:13:53 NON LICENCIE 10,550 05:41
606 366 TRIPLET AXELLE 00:50:40 SEF 40 00:20:54 00:14:08 WIMEREUX RUNNING CLUB 10,539 05:42
607 34 GORECKI THEO 00:50:42 CAM 21 00:20:56 00:19:26 NON LICENCIE 10,533 05:42
608 35 GORECKI FREDDY 00:50:42 V2M 89 00:20:56 00:17:47 NON LICENCIE 10,533 05:42
609 92 MANCHUELLE STEPHANE 00:50:45 V1M 176 00:20:59 00:18:42 ATHLETIQUE CLUB CAPELLOIS 10,522 05:42
610 636 LABBE TONY 00:50:49 V1M 177 00:21:03 00:18:46 AMICALE HOSPITALIERS BOULOGNE 10,508 05:43
611 196 DUFOUR MAHAUT 00:50:51 SEM 182 00:21:05 00:21:04 BLANC NEZ TRIATHLON 10,501 05:43
612 850 ETIENNE JEAN-LOUIS 00:50:51 V2M 90 00:21:05 00:17:56 NON LICENCIE 10,501 05:43
613 829 LABARRE WILLY 00:50:52 SEM 183 00:21:06 00:21:05 NON LICENCIE 10,498 05:43
614 691 FAUQUEMBERGUE VERONIQUE 00:50:53 V1F 48 00:21:07 00:14:09 LE DRAPEAU 10,495 05:43
615 127 LEBEGUE THERESE 00:50:53 V2F 15 00:21:07 00:09:17 LE DRAPEAU 10,495 05:43
616 703 LEFEBVRE JEROME 00:51:01 SEM 184 00:21:15 00:21:14 NON LICENCIE 10,467 05:44
617 789 FROMENT PHILIPPE 00:51:02 V2M 91 00:21:16 00:18:07 ATHLETISME TETEGHEM 10,464 05:44
618 234 LACHEVRE CHRISTINE 00:51:04 V2F 16 00:21:18 00:09:28 COURIR A GRAVELINES 10,457 05:44
619 566 CAZIN NICOLAS 00:51:05 SEM 185 00:21:19 00:21:18 FOULEES LOONOISES 10,454 05:44
620 710 DELIENCOURT LAURENT 00:51:06 V1M 178 00:21:20 00:19:03 ATHLETISME CLUB OUTREAU 10,450 05:44
621 439 COLSON JACKY 00:51:07 V3M 18 00:21:21 00:15:37 ARC INTERNATIONAL 10,447 05:45
622 709 DELIENCOURT AMELIE 00:51:13 SEF 41 00:21:27 00:14:41 ATHLETISME CLUB OUTREAU 10,426 05:45
623 338 RAVEL MARC 00:51:19 V2M 92 00:21:33 00:18:24 COLEMBERT 10,406 05:46
624 408 DESCAMPS ROMAIN 00:51:24 SEM 186 00:21:38 00:21:37 LE DRAPEAU 10,389 05:47
625 750 GARENAUX DOMINIQUE 00:51:31 V3M 19 00:21:45 00:16:01 NON LICENCIE 10,366 05:47
626 461 LEJOSNE ALEXANDRE 00:51:33 SEM 187 00:21:47 00:21:46 NON LICENCIE 10,359 05:48
627 786 MOREL JEROME 00:51:34 SEM 188 00:21:48 00:21:47 NON LICENCIE 10,356 05:48
628 112 BUISINE SYLVIE 00:51:38 V2F 17 00:21:52 00:10:02 CLUB ATHLE. COUDEKERQUE-B 10,342 05:48
629 791 POUCHENAUD YANNICK 00:51:43 V1M 179 00:21:57 00:19:40 NON LICENCIE 10,325 05:49
630 716 PROST ISABELLE 00:51:47 SEF 42 00:22:01 00:15:15 ATHLETISME CLUB OUTREAU 10,312 05:49
631 573 BAYARD DAVID 00:51:48 V1M 180 00:22:02 00:19:45 COURIR DANS LE LUMBROIS 10,309 05:49
632 492 LASSON NATHALIE 00:51:51 V2F 18 00:22:05 00:10:15 SPORT EVASION DES 2 CAPS 10,299 05:50
633 432 SPETER JOEL 00:51:53 V1M 181 00:22:07 00:19:50 NON LICENCIE 10,292 05:50
634 383 CAUPAIN CATHERINE 00:51:56 V1F 49 00:22:10 00:15:12 A.S. MARCK 10,282 05:50
635 371 VANNIER VIRGINIE 00:52:00 SEF 43 00:22:14 00:15:28 WIMEREUX RUNNING CLUB 10,269 05:51
636 563 COLIN RICHARD 00:52:02 V3M 20 00:22:16 00:16:32 ASUD JOGGING 10,263 05:51
637 782 LAVIE BETTY 00:52:03 SEF 44 00:22:17 00:15:31 TOUQUET TRAIL NATURE 10,259 05:51
638 30 MAGNIER BEATRICE 00:52:05 V2F 19 00:22:19 00:10:29 PINK LADIES 10,253 05:51
639 381 GOUDAL NATHALIE 00:52:09 V2F 20 00:22:23 00:10:33 A.S. MARCK 10,240 05:52
640 430 PERSYN STEPHANE 00:52:11 V2M 93 00:22:25 00:19:16 NON LICENCIE 10,233 05:52
641 857 FREZEL NADIA 00:52:15 SEF 45 00:22:29 00:15:43 OPALE TRAIL NATURE 10,220 05:52
642 273 BUCHET LAURENCE 00:52:18 SEF 46 00:22:32 00:15:46 NON LICENCIE 10,210 05:53
643 317 PARENT MARIELLE 00:52:21 V1F 50 00:22:35 00:15:37 TOUQUET OPALE ATHLETISME 10,201 05:53
644 464 MAGRIT SANDRA 00:52:22 V1F 51 00:22:36 00:15:38 NON LICENCIE 10,197 05:53
645 440 DAZIN DANIEL 00:52:24 V3M 21 00:22:38 00:16:54 ARC INTERNATIONAL 10,191 05:53
646 325 LOISEL VINCENT 00:52:25 V1M 182 00:22:39 00:20:22 NON LICENCIE 10,188 05:53
647 100 WIERRE SEVERINE 00:52:26 SEF 47 00:22:40 00:15:54 ATHLETIQUE CLUB CAPELLOIS 10,184 05:53
648 423 VIEQUE ROMAIN 00:52:27 SEM 189 00:22:41 00:22:40 NON LICENCIE 10,181 05:54
649 620 TREDEZ THEO 00:52:28 CAM 22 00:22:42 00:21:12 NON LICENCIE 10,178 05:54
650 233 ISAERT PASCAL 00:52:31 V3M 22 00:22:45 00:17:01 COURIR A GRAVELINES 10,168 05:54
651 286 MARIQUE PERRINE 00:52:35 JUF 1 00:22:49 00:00:00 COLEMBERT 10,155 05:54
652 370 CABY SOPHIE 00:52:37 V1F 52 00:22:51 00:15:53 WIMEREUX RUNNING CLUB 10,149 05:55
653 466 GOBERT GILLES 00:52:40 V2M 94 00:22:54 00:19:45 NON LICENCIE 10,139 05:55
654 671 PLATEAU MARIE 00:52:41 SEF 48 00:22:55 00:16:09 PATRIOTES CROSS DE GUINES 10,136 05:55
655 128 CAPIAUX JULIETTE 00:52:53 CAF 2 00:23:07 00:09:30 MARQUISE ATHLETISME 10,098 05:57
656 731 BOURGEOIS EMILIE 00:52:53 SEF 49 00:23:07 00:16:21 NON LICENCIE 10,098 05:57
657 730 DUFOUR VIRGINIE 00:52:53 SEF 50 00:23:07 00:16:21 NON LICENCIE 10,098 05:57
658 129 CAPIAUX FABIEN 00:52:54 V1M 183 00:23:08 00:20:51 MARQUISE 10,095 05:57
659 334 HOUZET ELIE 00:52:56 SEM 190 00:23:10 00:23:09 NON LICENCIE 10,088 05:57
660 333 BERTHE PATRICK 00:52:57 V2M 95 00:23:11 00:20:02 NON LICENCIE 10,085 05:57
661 828 BUTEL JEAN-PIERRE 00:52:58 V2M 96 00:23:12 00:20:03 NON LICENCIE 10,082 05:57
662 43 CARDON FRANCK 00:53:05 V1M 184 00:23:19 00:21:02 LE DRAPEAU 10,060 05:58
663 150 BAILLY ISABELLE 00:53:06 V1F 53 00:23:20 00:16:22 LE DRAPEAU 10,056 05:58
664 813 LAVIALLE CEDRIC 00:53:07 V1M 185 00:23:21 00:21:04 NON LICENCIE 10,053 05:58
665 699 BOURDON JEROME 00:53:10 SEM 191 00:23:24 00:23:23 NON LICENCIE 10,044 05:58
666 420 GOURNAY YANNICK 00:53:28 SEM 192 00:23:42 00:23:41 NON LICENCIE 9,988 06:00
667 411 BEAUMER GUILLAUME 00:53:34 SEM 193 00:23:48 00:23:47 NON LICENCIE 9,969 06:01
668 792 PHILIPPE MARION 00:53:40 SEF 51 00:23:54 00:17:08 NON LICENCIE 9,950 06:02
669 436 BARBIER PASCAL 00:53:41 V2M 97 00:23:55 00:20:46 ARC INTERNATIONAL 9,947 06:02
670 681 CARLU PAULINE 00:53:42 SEF 52 00:23:56 00:17:10 NON LICENCIE 9,944 06:02
671 593 LEFEBVRE ERIC 00:53:58 V1M 186 00:24:12 00:21:55 NON LICENCIE 9,895 06:04
672 419 LEDEZ PATRICK 00:54:05 V2M 98 00:24:19 00:21:10 NON LICENCIE 9,874 06:05
673 441 DAZIN JACQUELINE 00:54:23 V2F 21 00:24:37 00:12:47 ARC INTERNATIONAL 9,819 06:07
674 805 BARLET JEROME 00:54:23 V1M 187 00:24:37 00:22:20 NON LICENCIE 9,819 06:07
675 442 DE CLERCQ ERIC 00:54:23 V1M 188 00:24:37 00:22:20 ARC INTERNATIONAL 9,819 06:07
676 606 COQUART BEATRICE 00:54:26 V3F 2 00:24:40 00:05:57 ELAN FRUGEOIS 9,810 06:07
677 348 KRUBA MARIE LIESSE 00:54:29 V1F 54 00:24:43 00:17:45 SAINT MARTIN ATHLETISME 9,801 06:07
678 110 ADOUIAK YOUSEF 00:54:41 V1M 189 00:24:55 00:22:38 NON LICENCIE 9,765 06:09
679 728 MARCOURT LAURENCE 00:54:43 V1F 55 00:24:57 00:17:59 SAINT MARTIN ATHLETISME 9,759 06:09
680 261 REMBUR VIRGINIE 00:54:53 V2F 22 00:25:07 00:13:17 TOUQUET OPALE ATHLETISME 9,730 06:10
681 28 MAILLARD NADINE 00:55:00 V3F 3 00:25:14 00:06:31 PINK LADIES 9,709 06:11
682 524 DEVIGNE JEAN LOUIS 00:55:09 V3M 23 00:25:23 00:19:39 ATHLETISME CLUB OUTREAU 9,683 06:12
683 331 FOUCAULT CATHERINE 00:55:09 V2F 23 00:25:23 00:13:33 CULTURE DANSE ETAPLES 9,683 06:12
684 747 GUILBERT LISA 00:55:09 CAF 3 00:25:23 00:11:46 ELAN FRUGEOIS 9,683 06:12
685 609 DENUDT COLETTE 00:55:15 V2F 24 00:25:29 00:13:39 ELAN FRUGEOIS 9,665 06:12
686 395 GOCHE FRANCK 00:55:16 V1M 190 00:25:30 00:23:13 NON LICENCIE 9,662 06:13
687 265 THIERRY SEBASTIEN 00:55:19 SEM 194 00:25:33 00:25:32 NON LICENCIE 9,654 06:13
688 648 COZE OLIVIA 00:55:21 SEF 53 00:25:35 00:18:49 PATRIOTES CROSS DE GUINES 9,648 06:13
689 438 BRUGE GERARD 00:55:22 V3M 24 00:25:36 00:19:52 ARC INTERNATIONAL 9,645 06:13
690 374 HOWELLS KRISTINA 00:55:23 V1F 56 00:25:37 00:18:39 A.S. MARCK 9,642 06:13
691 246 UBERQUOI LAURENT 00:55:23 V1M 191 00:25:37 00:23:20 COURIR A GRAVELINES 9,642 06:13
692 394 ALEXANDRE CHRISTELE 00:55:26 V1F 57 00:25:40 00:18:42 TRIATHLON CLUB BOULONNAIS 9,633 06:14
693 349 DEGRAVE ROMAIN 00:55:33 SEM 195 00:25:47 00:25:46 NON LICENCIE 9,613 06:14
694 487 INTILE PHILIPPE 00:55:34 V1M 192 00:25:48 00:23:31 NON LICENCIE 9,610 06:15
695 292 GARENAUX FREDERIC 00:55:35 V3M 25 00:25:49 00:20:05 COLEMBERT 9,607 06:15
696 24 LEFEBVRE DENISE 00:55:37 V3F 4 00:25:51 00:07:08 NON LICENCIE 9,601 06:15
697 139 BATAILLE OLIVIER 00:55:37 SEM 196 00:25:51 00:25:50 ATHLETIQUE CLUB CAPELLOIS 9,601 06:15
698 744 GUILBERT CELIA 00:55:39 CAF 4 00:25:53 00:12:16 ELAN FRUGEOIS 9,596 06:15
699 284 FATRAS MARIE-ANNE 00:55:40 V1F 58 00:25:54 00:18:56 COLEMBERT 9,593 06:15
700 339 SORET PATRICK 00:55:40 V2M 99 00:25:54 00:22:45 COLEMBERT 9,593 06:15
701 650 DA SILVA ANNE-SOPHIE 00:55:40 V1F 59 00:25:54 00:18:56 PATRIOTES DE GUINES 9,593 06:15
702 181 HARLE MICHEL 00:55:53 V2M 100 00:26:07 00:22:58 SAINT MARTIN ATHLETISME 9,556 06:17
703 83 BEAUGRAND GENEVIEVE 00:55:54 V1F 60 00:26:08 00:19:10 ATHLETIQUE CLUB CAPELLOIS 9,553 06:17
704 95 OVION AGNES 00:55:56 V1F 61 00:26:10 00:19:12 ATHLETIQUE CLUB CAPELLOIS 9,547 06:17
705 71 BAUDUIN CHRISTIAN 00:56:11 V2M 101 00:26:25 00:23:16 NON LICENCIE 9,505 06:19
706 634 FRISQUET AURELIE 00:56:11 SEF 54 00:26:25 00:19:39 AMICALE HOSPITALIERS BOULOGNE 9,505 06:19
707 589 DEHONDT PERSYN CHRISTELLE 00:56:19 V1F 62 00:26:33 00:19:35 NON LICENCIE 9,482 06:20
708 232 HOUVENAGHEL EMILIE 00:56:25 SEF 55 00:26:39 00:19:53 COURIR A GRAVELINES 9,465 06:20
709 223 DECLERCQ CELINE 00:56:25 SEF 56 00:26:39 00:19:53 COURIR A GRAVELINES 9,465 06:20
710 554 SEGUIN AURORE 00:56:58 SEF 57 00:27:12 00:20:26 ATHLETISME CLUB OUTREAU 9,374 06:24
711 615 LHOMEL MURIELLE 00:57:12 V2F 25 00:27:26 00:15:36 NON LICENCIE 9,336 06:26
712 398 OGES NOEL 00:57:16 V2M 102 00:27:30 00:24:21 NON LICENCIE 9,325 06:26
713 169 POINTFER JACQUES 00:57:16 V3M 26 00:27:30 00:21:46 SPORT PLUS 9,325 06:26
714 616 LHOMEL PHILIPPE 00:57:22 V2M 103 00:27:36 00:24:27 NON LICENCIE 9,309 06:27
715 262 SCHULER PATRICK 00:57:23 V2M 104 00:27:37 00:24:28 NON LICENCIE 9,306 06:27
716 65 PRUVOST MARIE-CECILE 00:57:24 V3F 5 00:27:38 00:08:55 COLEMBERT 9,303 06:27
717 568 CAILLIET MATHILDE 00:57:26 SEF 58 00:27:40 00:20:54 FOULEES LOONOISES 9,298 06:27
718 5 MODOLO FANNY 00:57:26 V1F 63 00:27:40 00:20:42 LE DRAPEAU 9,298 06:27
719 570 GAMBLIN MICHAEL 00:57:28 SEM 197 00:27:42 00:27:41 FOULEES LOONOISES 9,292 06:27
720 189 LECLERCQ ANNE-MARIE 00:57:32 V3F 6 00:27:46 00:09:03 SAINT MARTIN ATHLETISME 9,282 06:28
721 664 LEFRANC SOPHIE 00:57:39 SEF 59 00:27:53 00:21:07 PATRIOTES CROSS DE GUINES 9,263 06:29
722 585 BERKOUN LAETITIA 00:57:45 SEF 60 00:27:59 00:21:13 BOULOGNE ATHLETIQUE CLUB 9,247 06:29
723 511 DAUTREVAUX CAROLINE 00:57:54 V1F 64 00:28:08 00:21:10 ATHLETISME CLUB OUTREAU 9,223 06:30
724 512 DAUTREVAUX DAVID 00:57:55 V1M 193 00:28:09 00:25:52 ATHLETISME CLUB OUTREAU 9,220 06:30
725 488 HASPESLAGH JEAN-FRANCOIS 00:57:56 V3M 27 00:28:10 00:22:26 NON LICENCIE 9,217 06:31
726 257 SCHOONHEERE GILBERT 00:57:56 V3M 28 00:28:10 00:22:26 CLUB ATHLE. COUDEKERQUE-B 9,217 06:31
727 820 JOLY MARY 00:57:57 CAF 5 00:28:11 00:14:34 BCK 9,215 06:31
728 190 DUBOIS ELISE 00:57:57 SEF 61 00:28:11 00:21:25 NON LICENCIE 9,215 06:31
729 418 RIQUIER MARIELLE 00:57:59 V2F 26 00:28:13 00:16:23 LE DRAPEAU 9,210 06:31
730 793 COLLANGE ADRIEN 00:58:02 SEM 198 00:28:16 00:28:15 NON LICENCIE 9,202 06:31
731 810 GAUTHIER GUILLAUME 00:58:04 SEM 199 00:28:18 00:28:17 NON LICENCIE 9,196 06:31
732 697 DEBOVE CEDRIC 00:58:07 SEM 200 00:28:21 00:28:20 NON LICENCIE 9,188 06:32
733 504 BRILLARD CHRISTELE 00:58:07 SEF 62 00:28:21 00:21:35 ATHLETISME CLUB OUTREAU 9,188 06:32
734 337 DEBOVE CAROLINE 00:58:07 SEF 63 00:28:21 00:21:35 NON LICENCIE 9,188 06:32
735 556 TELLIER ISABELLE 00:58:09 V1F 65 00:28:23 00:21:25 ATHLETISME CLUB OUTREAU 9,183 06:32
736 220 CUVELLIER KARINE 00:58:24 V1F 66 00:28:38 00:21:40 COURIR A GRAVELINES 9,144 06:34
737 25 HAMY DANY 00:58:30 V1F 67 00:28:44 00:21:46 NON LICENCIE 9,128 06:34
738 230 DUREZ BRUNO 00:58:41 V2M 105 00:28:55 00:25:46 COURIR A GRAVELINES 9,100 06:36
739 451 ROLAND BERTRAND 00:59:07 V2M 106 00:29:21 00:26:12 ARC INTERNATIONAL 9,033 06:39
740 595 CARON CATHERINE 00:59:08 V1F 68 00:29:22 00:22:24 NON LICENCIE 9,030 06:39
741 104 DELATTRE KARINE 00:59:09 SEF 64 00:29:23 00:22:37 NON LICENCIE 9,028 06:39
742 227 DEGRAVE PATRICIA 00:59:09 V2F 27 00:29:23 00:17:33 COURIR A GRAVELINES 9,028 06:39
743 564 PIT CAROLE 00:59:12 V2F 28 00:29:26 00:17:36 FOULEES LOONOISES 9,020 06:39
744 390 FAUQUET ISABELLE 00:59:24 V1F 69 00:29:38 00:22:40 NON LICENCIE 8,990 06:40
745 656 FEUTRY MATHILDE 00:59:37 SEF 65 00:29:51 00:23:05 PATRIOTES CROSS DE GUINES 8,957 06:42
746 534 LEDUCQ MARTINE 00:59:41 V2F 29 00:29:55 00:18:05 ATHLETISME CLUB OUTREAU 8,947 06:42
747 106 BOUCHER FREDERIC 00:59:51 V1M 194 00:30:05 00:27:48 NON LICENCIE 8,922 06:43
748 558 SOUPE CHRISTELLE 01:00:00 V1F 70 00:30:14 00:23:16 ASUD JOGGING 8,900 06:44
749 74 HENQUEZ BERNADETTE 01:00:04 V3F 7 00:30:18 00:11:35 PATRIOTES DE GUINES 8,890 06:45
750 165 GIBERT JEAN-LUC 01:00:06 V3M 29 00:30:20 00:24:36 SPORT PLUS 8,885 06:45
751 173 VERITE HERVE 01:00:06 V2M 107 00:30:20 00:27:11 SPORT PLUS 8,885 06:45
752 29 LIGNIER MARIE FRANCE 01:00:19 V4F 1 00:30:33 00:00:00 LE DRAPEAU 8,853 06:47
753 225 DEFEVER CATHERINE 01:00:32 V1F 71 00:30:46 00:23:48 COURIR A GRAVELINES 8,822 06:48
754 818 BOULANGER DOROTHEE 01:00:45 SEF 66 00:30:59 00:24:13 NON LICENCIE 8,790 06:50
755 245 STERCKEMAN DELPHINE 01:01:09 V1F 72 00:31:23 00:24:25 COURIR A GRAVELINES 8,733 06:52
756 414 TACQUENIER GEORGES 01:02:14 V2M 108 00:32:28 00:29:19 NON LICENCIE 8,581 07:00
757 468 CORBILLON JACQUES 01:02:38 V3M 30 00:32:52 00:27:08 AMICALE DU VAL DE SOMME 8,526 07:02
758 231 HAYAERT JACQUES 01:02:47 V4M 2 00:33:01 00:18:13 COURIR A GRAVELINES 8,505 07:03
759 346 PIHL MARIE-BERTHE 01:02:50 V2F 30 00:33:04 00:21:14 SAINT MARTIN ATHLETISME 8,499 07:04
760 773 BOCQUET GERARD 01:02:51 V2M 109 00:33:05 00:29:56 SAINT MARTIN ATHLETISME 8,496 07:04
761 221 CUVELLIER LUCIE 01:02:57 SEF 67 00:33:11 00:26:25 COURIR A GRAVELINES 8,483 07:04
762 453 SALOME ELISABETH 01:03:31 V1F 73 00:33:45 00:26:47 ARC INTERNATIONAL 8,407 07:08
763 160 CORNE FRANCOISE 01:03:50 V3F 8 00:34:04 00:15:21 SPORT PLUS 8,366 07:10
764 817 VERBRIGGHE BRIGITTE 01:04:38 SEF 68 00:34:52 00:28:06 FOULEES LOONOISES 8,262 07:16
765 62 TREDEZ FABIEN 01:05:58 V2M 110 00:36:12 00:33:03 NON LICENCIE 8,095 07:25
766 618 MASSON BETTY 01:07:04 SEF 69 00:37:18 00:30:32 NON LICENCIE 7,962 07:32
767 778 ALTEMEYER PHILIPPE 01:07:07 SEM 201 00:37:21 00:37:20 NON LICENCIE 7,956 07:32
768 763 DEMOL HUBERT 01:07:29 V2M 111 00:37:43 00:34:34 NON LICENCIE 7,913 07:35
769 619 MAGNIER MICKAEL 01:09:35 SEM 202 00:39:49 00:39:48 NON LICENCIE 7,674 07:49
770 101 MAHIEUX MARYSE 01:14:22 V2F 31 00:44:36 00:32:46 NON LICENCIE 7,181 08:21
771 848 VAUTHIER JACQUELINE 01:16:40 V3F 9 00:46:54 00:28:11 PINK LADIES 6,965 08:37
Novembre 2017
Lun Mar Mer Jeu Ven Sam Dim
1
2
3
4
5
6
7
8
9
10
11
12
13
14
15
16
17
18
19
20
21
22
23
24
25
27
28
29
30